Wetterdaten: Donnerstag, 27.02.2020
Datum Zeit Temp. Aussen Temp. o. S. Temp +5cm Feuchte Auss Luftdruck Regen Sonnenschein Regendauer Solar Windben Empfang
27.02.2020 00:00 2,4 C 1,1 C 1,1 C 97 % 1006,9 hPa 0,0 l/m 0 min 2 min 0 W/m 0,0 km/h (0 Bft) 97,87 %
27.02.2020 00:02 2,4 C 1,1 C 1,1 C 97 % 1006,9 hPa 0,0 l/m 0 min 0 min 0 W/m 0,0 km/h (0 Bft) 100,00 %
27.02.2020 00:04 2,4 C 1,1 C 1,1 C 97 % 1006,9 hPa 0,0 l/m 0 min 0 min 0 W/m 0,0 km/h (0 Bft) 100,00 %
27.02.2020 00:08 2,4 C 1,1 C 1,1 C 97 % 1006,9 hPa 0,0 l/m 0 min 0 min 0 W/m 0,0 km/h (0 Bft) 96,77 %
27.02.2020 00:10 2,4 C 1,7 C 1,1 C 97 % 1006,9 hPa 0,0 l/m 0 min 0 min 0 W/m 0,0 km/h (0 Bft) 100,00 %
27.02.2020 00:12 2,4 C 1,7 C 1,1 C 97 % 1006,9 hPa 0,0 l/m 0 min 0 min 0 W/m 0,0 km/h (0 Bft) 97,87 %
27.02.2020 00:14 2,3 C 1,7 C 1,1 C 97 % 1006,9 hPa 0,0 l/m 0 min 0 min 0 W/m 0,0 km/h (0 Bft) 97,87 %
27.02.2020 00:16 2,4 C 1,7 C 1,1 C 97 % 1007,0 hPa 0,0 l/m 0 min 0 min 0 W/m 3,2 km/h (1 Bft) 95,74 %
27.02.2020 00:18 2,4 C 1,7 C 1,1 C 97 % 1007,0 hPa 0,0 l/m 0 min 0 min 0 W/m 0,0 km/h (0 Bft) 97,87 %
27.02.2020 00:20 2,4 C 1,7 C 1,1 C 97 % 1007,1 hPa 0,0 l/m 0 min 0 min 0 W/m 0,0 km/h (0 Bft) 97,83 %
27.02.2020 00:22 2,4 C 1,7 C 1,1 C 97 % 1007,0 hPa 0,0 l/m 0 min 0 min 0 W/m 0,0 km/h (0 Bft) 95,74 %
27.02.2020 00:24 2,4 C 1,7 C 1,1 C 97 % 1007,0 hPa 0,0 l/m 0 min 0 min 0 W/m 0,0 km/h (0 Bft) 97,87 %
27.02.2020 00:26 2,4 C 1,7 C 1,1 C 97 % 1006,9 hPa 0,0 l/m 0 min 0 min 0 W/m 0,0 km/h (0 Bft) 97,87 %
27.02.2020 00:28 2,4 C 1,7 C 1,1 C 97 % 1007,0 hPa 0,0 l/m 0 min 0 min 0 W/m 0,0 km/h (0 Bft) 97,87 %
27.02.2020 00:30 2,4 C 1,7 C 1,1 C 97 % 1007,0 hPa 0,0 l/m 0 min 0 min 0 W/m 0,0 km/h (0 Bft) 97,87 %
27.02.2020 00:32 2,4 C 1,7 C 1,1 C 97 % 1006,9 hPa 0,0 l/m 0 min 0 min 0 W/m 0,0 km/h (0 Bft) 97,83 %
27.02.2020 00:34 2,4 C 1,7 C 1,1 C 97 % 1006,9 hPa 0,0 l/m 0 min 0 min 0 W/m 0,0 km/h (0 Bft) 97,87 %
27.02.2020 00:36 2,4 C 1,7 C 1,1 C 97 % 1006,9 hPa 0,0 l/m 0 min 0 min 0 W/m 0,0 km/h (0 Bft) 97,87 %
27.02.2020 00:38 2,4 C 1,7 C 1,1 C 97 % 1006,9 hPa 0,0 l/m 0 min 0 min 0 W/m 0,0 km/h (0 Bft) 97,87 %
27.02.2020 00:40 2,4 C 1,7 C 1,1 C 97 % 1006,9 hPa 0,0 l/m 0 min 0 min 0 W/m 0,0 km/h (0 Bft) 95,74 %
27.02.2020 00:42 2,4 C 1,7 C 1,1 C 97 % 1006,9 hPa 0,0 l/m 0 min 0 min 0 W/m 0,0 km/h (0 Bft) 97,83 %
27.02.2020 00:44 2,4 C 1,7 C 1,1 C 97 % 1006,9 hPa 0,0 l/m 0 min 0 min 0 W/m 0,0 km/h (0 Bft) 97,87 %
27.02.2020 00:46 2,4 C 1,7 C 1,1 C 98 % 1006,9 hPa 0,0 l/m 0 min 0 min 0 W/m 0,0 km/h (0 Bft) 95,74 %
27.02.2020 00:48 2,5 C 1,7 C 1,1 C 98 % 1006,8 hPa 0,0 l/m 0 min 0 min 0 W/m 0,0 km/h (0 Bft) 97,87 %
27.02.2020 00:50 2,5 C 1,7 C 1,1 C 98 % 1006,9 hPa 0,0 l/m 0 min 0 min 0 W/m 0,0 km/h (0 Bft) 97,87 %
27.02.2020 00:52 2,5 C 1,7 C 1,1 C 98 % 1006,9 hPa 0,0 l/m 0 min 0 min 0 W/m 0,0 km/h (0 Bft) 97,87 %
27.02.2020 00:54 2,5 C 1,7 C 1,1 C 98 % 1006,9 hPa 0,0 l/m 0 min 0 min 0 W/m 0,0 km/h (0 Bft) 97,83 %
27.02.2020 00:56 2,5 C 1,7 C 1,1 C 98 % 1007,0 hPa 0,0 l/m 0 min 0 min 0 W/m 0,0 km/h (0 Bft) 100,00 %
27.02.2020 00:58 2,5 C 1,7 C 1,1 C 98 % 1006,9 hPa 0,0 l/m 0 min 0 min 0 W/m 0,0 km/h (0 Bft) 100,00 %
27.02.2020 01:00 2,5 C 1,7 C 1,1 C 98 % 1006,9 hPa 0,0 l/m 0 min 0 min 0 W/m 0,0 km/h (0 Bft) 100,00 %
27.02.2020 01:02 2,5 C 1,7 C 1,1 C 98 % 1006,9 hPa 0,0 l/m 0 min 0 min 0 W/m 0,0 km/h (0 Bft) 100,00 %
27.02.2020 01:04 2,5 C 1,7 C 1,1 C 98 % 1006,8 hPa 0,0 l/m 0 min 0 min 0 W/m 0,0 km/h (0 Bft) 100,00 %
27.02.2020 01:06 2,5 C 1,7 C 1,1 C 98 % 1006,8 hPa 0,0 l/m 0 min 0 min 0 W/m 0,0 km/h (0 Bft) 97,83 %
27.02.2020 01:08 2,5 C 1,7 C 1,1 C 98 % 1006,8 hPa 0,0 l/m 0 min 0 min 0 W/m 0,0 km/h (0 Bft) 100,00 %
27.02.2020 01:10 2,4 C 1,7 C 1,1 C 98 % 1006,8 hPa 0,0 l/m 0 min 0 min 0 W/m 0,0 km/h (0 Bft) 100,00 %
27.02.2020 01:12 2,4 C 1,7 C 1,1 C 97 % 1006,8 hPa 0,0 l/m 0 min 0 min 0 W/m 0,0 km/h (0 Bft) 100,00 %
27.02.2020 01:14 2,4 C 1,7 C 1,1 C 97 % 1006,8 hPa 0,0 l/m 0 min 0 min 0 W/m 0,0 km/h (0 Bft) 100,00 %
27.02.2020 01:16 2,4 C 1,7 C 1,1 C 97 % 1006,8 hPa 0,0 l/m 0 min 0 min 0 W/m 16,1 km/h (3 Bft) 100,00 %
27.02.2020 01:18 2,4 C 1,7 C 1,1 C 97 % 1006,8 hPa 0,0 l/m 0 min 0 min 0 W/m 0,0 km/h (0 Bft) 100,00 %
27.02.2020 01:20 2,4 C 1,7 C 1,1 C 97 % 1006,8 hPa 0,0 l/m 0 min 0 min 0 W/m 6,4 km/h (2 Bft) 100,00 %
27.02.2020 01:22 2,4 C 1,7 C 1,1 C 97 % 1006,8 hPa 0,0 l/m 0 min 0 min 0 W/m 3,2 km/h (1 Bft) 100,00 %
27.02.2020 01:24 2,4 C 1,7 C 1,1 C 97 % 1006,8 hPa 0,0 l/m 0 min 0 min 0 W/m 3,2 km/h (1 Bft) 100,00 %
27.02.2020 01:26 2,4 C 1,1 C 1,1 C 97 % 1006,8 hPa 0,0 l/m 0 min 0 min 0 W/m 0,0 km/h (0 Bft) 100,00 %
27.02.2020 01:28 2,3 C 1,1 C 1,1 C 97 % 1006,8 hPa 0,0 l/m 0 min 0 min 0 W/m 3,2 km/h (1 Bft) 100,00 %
27.02.2020 01:30 2,3 C 1,1 C 1,1 C 97 % 1006,8 hPa 0,0 l/m 0 min 0 min 0 W/m 3,2 km/h (1 Bft) 97,83 %
27.02.2020 01:32 2,3 C 1,1 C 1,1 C 97 % 1006,8 hPa 0,0 l/m 0 min 0 min 0 W/m 0,0 km/h (0 Bft) 97,87 %
27.02.2020 01:34 2,3 C 1,1 C 1,1 C 97 % 1006,8 hPa 0,0 l/m 0 min 0 min 0 W/m 0,0 km/h (0 Bft) 97,87 %
27.02.2020 01:36 2,3 C 1,1 C 1,1 C 97 % 1006,8 hPa 0,0 l/m 0 min 0 min 0 W/m 3,2 km/h (1 Bft) 97,87 %
27.02.2020 01:38 2,3 C 1,1 C 1,1 C 97 % 1006,8 hPa 0,0 l/m 0 min 0 min 0 W/m 0,0 km/h (0 Bft) 97,87 %
27.02.2020 01:40 2,3 C 1,1 C 1,1 C 97 % 1006,8 hPa 0,0 l/m 0 min 0 min 0 W/m 0,0 km/h (0 Bft) 97,87 %
27.02.2020 01:42 2,3 C 1,1 C 1,1 C 97 % 1006,8 hPa 0,0 l/m 0 min 0 min 0 W/m 0,0 km/h (0 Bft) 97,83 %
27.02.2020 01:44 2,2 C 1,1 C 1,1 C 97 % 1006,8 hPa 0,0 l/m 0 min 0 min 0 W/m 0,0 km/h (0 Bft) 97,87 %
27.02.2020 01:46 2,2 C 1,1 C 1,1 C 97 % 1006,8 hPa 0,0 l/m 0 min 0 min 0 W/m 0,0 km/h (0 Bft) 97,87 %
27.02.2020 01:48 2,2 C 1,1 C 0,6 C 97 % 1006,7 hPa 0,0 l/m 0 min 0 min 0 W/m 0,0 km/h (0 Bft) 95,74 %
27.02.2020 01:50 2,2 C 1,1 C 0,6 C 97 % 1006,8 hPa 0,0 l/m 0 min 0 min 0 W/m 0,0 km/h (0 Bft) 95,74 %
27.02.2020 01:52 2,2 C 1,1 C 0,6 C 97 % 1006,8 hPa 0,0 l/m 0 min 0 min 0 W/m 0,0 km/h (0 Bft) 95,65 %
27.02.2020 01:54 2,2 C 1,1 C 0,6 C 97 % 1006,8 hPa 0,0 l/m 0 min 0 min 0 W/m 0,0 km/h (0 Bft) 95,74 %
27.02.2020 01:56 2,2 C 1,1 C 0,6 C 97 % 1006,8 hPa 0,0 l/m 0 min 0 min 0 W/m 0,0 km/h (0 Bft) 95,74 %
27.02.2020 01:58 2,1 C 1,1 C 0,6 C 97 % 1006,8 hPa 0,0 l/m 0 min 0 min 0 W/m 0,0 km/h (0 Bft) 95,74 %
27.02.2020 02:00 2,1 C 1,1 C 0,6 C 97 % 1006,8 hPa 0,0 l/m 0 min 0 min 0 W/m 3,2 km/h (1 Bft) 93,62 %
27.02.2020 02:02 2,1 C 1,1 C 0,6 C 97 % 1006,8 hPa 0,0 l/m 0 min 0 min 0 W/m 0,0 km/h (0 Bft) 91,49 %
27.02.2020 02:04 2,1 C 1,1 C 0,6 C 97 % 1006,8 hPa 0,0 l/m 0 min 0 min 0 W/m 0,0 km/h (0 Bft) 93,48 %
27.02.2020 02:06 2,1 C 1,1 C 0,6 C 97 % 1006,8 hPa 0,2 l/m 0 min 0 min 0 W/m 12,9 km/h (3 Bft) 95,74 %
27.02.2020 02:08 2,1 C 1,1 C 0,6 C 97 % 1006,7 hPa 0,0 l/m 0 min 0 min 0 W/m 3,2 km/h (1 Bft) 95,74 %
27.02.2020 02:10 2,1 C 1,1 C 0,6 C 97 % 1006,8 hPa 0,0 l/m 0 min 0 min 0 W/m 0,0 km/h (0 Bft) 95,74 %
27.02.2020 02:12 2,1 C 1,1 C 0,6 C 97 % 1006,7 hPa 0,0 l/m 0 min 0 min 0 W/m 0,0 km/h (0 Bft) 93,62 %
27.02.2020 02:14 2,1 C 1,1 C 0,6 C 97 % 1006,8 hPa 0,0 l/m 0 min 0 min 0 W/m 0,0 km/h (0 Bft) 95,74 %
27.02.2020 02:16 2,1 C 1,1 C 0,6 C 97 % 1006,8 hPa 0,0 l/m 0 min 0 min 0 W/m 3,2 km/h (1 Bft) 95,65 %
27.02.2020 02:18 2,1 C 1,1 C 0,6 C 97 % 1006,8 hPa 0,0 l/m 0 min 0 min 0 W/m 0,0 km/h (0 Bft) 93,62 %
27.02.2020 02:20 2,1 C 1,1 C 0,6 C 97 % 1006,8 hPa 0,0 l/m 0 min 0 min 0 W/m 0,0 km/h (0 Bft) 95,74 %
27.02.2020 02:22 2,1 C 1,1 C 0,6 C 97 % 1006,8 hPa 0,0 l/m 0 min 0 min 0 W/m 3,2 km/h (1 Bft) 91,49 %
27.02.2020 02:24 2,1 C 1,1 C 0,6 C 97 % 1006,8 hPa 0,0 l/m 0 min 0 min 0 W/m 3,2 km/h (1 Bft) 93,62 %
27.02.2020 02:26 2,1 C 1,1 C 0,6 C 97 % 1006,8 hPa 0,0 l/m 0 min 0 min 0 W/m 0,0 km/h (0 Bft) 95,74 %
27.02.2020 02:28 2,1 C 1,1 C 1,1 C 97 % 1006,7 hPa 0,0 l/m 0 min 0 min 0 W/m 0,0 km/h (0 Bft) 95,65 %
27.02.2020 02:30 2,1 C 1,1 C 1,1 C 97 % 1006,7 hPa 0,0 l/m 0 min 0 min 0 W/m 0,0 km/h (0 Bft) 93,62 %
27.02.2020 02:32 2,1 C 1,7 C 1,1 C 97 % 1006,7 hPa 0,0 l/m 0 min 0 min 0 W/m 0,0 km/h (0 Bft) 91,49 %
27.02.2020 02:34 2,1 C 1,7 C 1,1 C 98 % 1006,7 hPa 0,0 l/m 0 min 0 min 0 W/m 6,4 km/h (2 Bft) 91,49 %
27.02.2020 02:36 2,1 C 1,7 C 1,1 C 98 % 1006,7 hPa 0,0 l/m 0 min 0 min 0 W/m 9,7 km/h (2 Bft) 97,87 %
27.02.2020 02:38 2,1 C 1,7 C 1,1 C 98 % 1006,7 hPa 0,0 l/m 0 min 0 min 0 W/m 3,2 km/h (1 Bft) 100,00 %
27.02.2020 02:40 2,2 C 1,7 C 1,1 C 98 % 1006,7 hPa 0,0 l/m 0 min 0 min 0 W/m 3,2 km/h (1 Bft) 97,87 %
27.02.2020 02:42 2,2 C 1,7 C 1,1 C 98 % 1006,7 hPa 0,0 l/m 0 min 0 min 0 W/m 0,0 km/h (0 Bft) 97,87 %
27.02.2020 02:44 2,2 C 1,7 C 1,1 C 98 % 1006,7 hPa 0,0 l/m 0 min 0 min 0 W/m 0,0 km/h (0 Bft) 97,87 %
27.02.2020 02:46 2,2 C 1,7 C 1,1 C 98 % 1006,7 hPa 0,0 l/m 0 min 0 min 0 W/m 3,2 km/h (1 Bft) 100,00 %
27.02.2020 02:48 2,2 C 1,7 C 1,1 C 98 % 1006,7 hPa 0,0 l/m 0 min 0 min 0 W/m 0,0 km/h (0 Bft) 100,00 %
27.02.2020 02:50 2,2 C 1,7 C 1,1 C 98 % 1006,7 hPa 0,0 l/m 0 min 0 min 0 W/m 0,0 km/h (0 Bft) 93,48 %
27.02.2020 02:52 2,2 C 1,7 C 1,1 C 98 % 1006,7 hPa 0,0 l/m 0 min 0 min 0 W/m 0,0 km/h (0 Bft) 97,87 %
27.02.2020 02:54 2,3 C 1,7 C 1,1 C 98 % 1006,8 hPa 0,0 l/m 0 min 0 min 0 W/m 6,4 km/h (2 Bft) 97,87 %
27.02.2020 02:56 2,3 C 1,7 C 1,1 C 98 % 1006,7 hPa 0,0 l/m 0 min 0 min 0 W/m 0,0 km/h (0 Bft) 97,87 %
27.02.2020 02:58 2,3 C 1,7 C 1,1 C 98 % 1006,7 hPa 0,0 l/m 0 min 0 min 0 W/m 0,0 km/h (0 Bft) 97,87 %
27.02.2020 03:00 2,3 C 1,7 C 1,1 C 98 % 1006,7 hPa 0,0 l/m 0 min 0 min 0 W/m 6,4 km/h (2 Bft) 97,87 %
27.02.2020 03:02 2,3 C 1,7 C 1,1 C 98 % 1006,7 hPa 0,0 l/m 0 min 0 min 0 W/m 3,2 km/h (1 Bft) 95,65 %
27.02.2020 03:04 2,3 C 1,7 C 1,1 C 98 % 1006,6 hPa 0,0 l/m 0 min 0 min 0 W/m 0,0 km/h (0 Bft) 97,87 %
27.02.2020 03:06 2,3 C 1,7 C 1,1 C 98 % 1006,6 hPa 0,0 l/m 0 min 0 min 0 W/m 3,2 km/h (1 Bft) 97,87 %
27.02.2020 03:08 2,3 C 1,7 C 1,1 C 98 % 1006,6 hPa 0,0 l/m 0 min 0 min 0 W/m 6,4 km/h (2 Bft) 97,87 %
27.02.2020 03:10 2,3 C 1,7 C 1,1 C 98 % 1006,6 hPa 0,0 l/m 0 min 0 min 0 W/m 0,0 km/h (0 Bft) 97,87 %
27.02.2020 03:12 2,3 C 1,7 C 1,1 C 98 % 1006,6 hPa 0,0 l/m 0 min 0 min 0 W/m 0,0 km/h (0 Bft) 97,87 %
27.02.2020 03:14 2,3 C 1,7 C 1,1 C 98 % 1006,6 hPa 0,0 l/m 0 min 0 min 0 W/m 0,0 km/h (0 Bft) 97,83 %
27.02.2020 03:16 2,3 C 1,7 C 1,1 C 98 % 1006,6 hPa 0,0 l/m 0 min 0 min 0 W/m 3,2 km/h (1 Bft) 97,87 %
27.02.2020 03:18 2,3 C 1,7 C 1,1 C 98 % 1006,5 hPa 0,0 l/m 0 min 0 min 0 W/m 0,0 km/h (0 Bft) 95,74 %
27.02.2020 03:20 2,3 C 1,7 C 1,1 C 98 % 1006,5 hPa 0,0 l/m 0 min 0 min 0 W/m 3,2 km/h (1 Bft) 97,87 %
27.02.2020 03:22 2,3 C 1,1 C 1,1 C 98 % 1006,5 hPa 0,0 l/m 0 min 0 min 0 W/m 0,0 km/h (0 Bft) 97,87 %
27.02.2020 03:24 2,3 C 1,1 C 1,1 C 98 % 1006,5 hPa 0,0 l/m 0 min 0 min 0 W/m 3,2 km/h (1 Bft) 97,87 %
27.02.2020 03:26 2,3 C 1,1 C 1,1 C 98 % 1006,5 hPa 0,0 l/m 0 min 0 min 0 W/m 3,2 km/h (1 Bft) 97,83 %
27.02.2020 03:28 2,3 C 1,1 C 1,1 C 98 % 1006,5 hPa 0,0 l/m 0 min 0 min 0 W/m 3,2 km/h (1 Bft) 97,87 %
27.02.2020 03:30 2,3 C 1,1 C 0,6 C 98 % 1006,5 hPa 0,0 l/m 0 min 0 min 0 W/m 0,0 km/h (0 Bft) 97,87 %
27.02.2020 03:32 2,2 C 1,1 C 0,6 C 98 % 1006,4 hPa 0,0 l/m 0 min 0 min 0 W/m 0,0 km/h (0 Bft) 95,74 %
27.02.2020 03:34 2,2 C 1,1 C 1,1 C 98 % 1006,4 hPa 0,0 l/m 0 min 0 min 0 W/m 0,0 km/h (0 Bft) 100,00 %
27.02.2020 03:36 2,2 C 1,1 C 1,1 C 98 % 1006,4 hPa 0,0 l/m 0 min 0 min 0 W/m 0,0 km/h (0 Bft) 97,83 %
27.02.2020 03:38 2,2 C 1,1 C 1,1 C 98 % 1006,4 hPa 0,0 l/m 0 min 0 min 0 W/m 0,0 km/h (0 Bft) 100,00 %
27.02.2020 03:40 2,2 C 1,1 C 1,1 C 98 % 1006,4 hPa 0,0 l/m 0 min 0 min 0 W/m 3,2 km/h (1 Bft) 100,00 %
27.02.2020 03:42 2,2 C 1,1 C 1,1 C 98 % 1006,4 hPa 0,0 l/m 0 min 0 min 0 W/m 3,2 km/h (1 Bft) 97,87 %
27.02.2020 03:44 2,2 C 1,1 C 1,1 C 98 % 1006,3 hPa 0,0 l/m 0 min 0 min 0 W/m 0,0 km/h (0 Bft) 100,00 %
27.02.2020 03:46 2,2 C 1,1 C 1,1 C 98 % 1006,3 hPa 0,0 l/m 0 min 0 min 0 W/m 12,9 km/h (3 Bft) 100,00 %
27.02.2020 03:48 2,2 C 1,1 C 1,1 C 98 % 1006,3 hPa 0,0 l/m 0 min 0 min 0 W/m 3,2 km/h (1 Bft) 100,00 %
27.02.2020 03:50 2,2 C 1,1 C 1,1 C 98 % 1006,3 hPa 0,0 l/m 0 min 0 min 0 W/m 6,4 km/h (2 Bft) 100,00 %
27.02.2020 03:52 2,2 C 1,1 C 1,1 C 98 % 1006,3 hPa 0,0 l/m 0 min 0 min 0 W/m 0,0 km/h (0 Bft) 100,00 %
27.02.2020 03:54 2,2 C 1,1 C 1,1 C 98 % 1006,3 hPa 0,0 l/m 0 min 0 min 0 W/m 3,2 km/h (1 Bft) 100,00 %
27.02.2020 03:56 2,2 C 1,1 C 1,1 C 98 % 1006,3 hPa 0,0 l/m 0 min 0 min 0 W/m 3,2 km/h (1 Bft) 100,00 %
27.02.2020 03:58 2,2 C 1,1 C 0,6 C 98 % 1006,3 hPa 0,0 l/m 0 min 0 min 0 W/m 3,2 km/h (1 Bft) 97,87 %
27.02.2020 04:00 2,2 C 1,1 C 1,1 C 98 % 1006,3 hPa 0,0 l/m 0 min 0 min 0 W/m 0,0 km/h (0 Bft) 100,00 %
27.02.2020 04:02 2,2 C 1,1 C 1,1 C 98 % 1006,3 hPa 0,0 l/m 0 min 0 min 0 W/m 0,0 km/h (0 Bft) 100,00 %
27.02.2020 04:04 2,2 C 1,1 C 0,6 C 98 % 1006,3 hPa 0,0 l/m 0 min 0 min 0 W/m 0,0 km/h (0 Bft) 97,87 %
27.02.2020 04:06 2,2 C 1,1 C 0,6 C 98 % 1006,2 hPa 0,0 l/m 0 min 0 min 0 W/m 0,0 km/h (0 Bft) 95,74 %
27.02.2020 04:08 2,1 C 1,1 C 0,6 C 98 % 1006,3 hPa 0,0 l/m 0 min 0 min 0 W/m 0,0 km/h (0 Bft) 100,00 %
27.02.2020 04:10 2,1 C 1,1 C 0,6 C 98 % 1006,2 hPa 0,0 l/m 0 min 0 min 0 W/m 0,0 km/h (0 Bft) 100,00 %
27.02.2020 04:12 2,1 C 1,1 C 0,6 C 98 % 1006,2 hPa 0,0 l/m 0 min 0 min 0 W/m 3,2 km/h (1 Bft) 100,00 %
27.02.2020 04:14 2,1 C 1,1 C 0,6 C 98 % 1006,1 hPa 0,0 l/m 0 min 0 min 0 W/m 0,0 km/h (0 Bft) 100,00 %
27.02.2020 04:16 2,1 C 1,1 C 0,6 C 97 % 1006,2 hPa 0,0 l/m 0 min 0 min 0 W/m 3,2 km/h (1 Bft) 100,00 %
27.02.2020 04:18 2,1 C 1,1 C 0,6 C 97 % 1006,1 hPa 0,0 l/m 0 min 0 min 0 W/m 0,0 km/h (0 Bft) 100,00 %
27.02.2020 04:20 2,1 C 1,1 C 0,6 C 97 % 1006,1 hPa 0,0 l/m 0 min 0 min 0 W/m 3,2 km/h (1 Bft) 100,00 %
27.02.2020 04:22 2,1 C 1,1 C 0,6 C 97 % 1006,1 hPa 0,0 l/m 0 min 0 min 0 W/m 0,0 km/h (0 Bft) 100,00 %
27.02.2020 04:24 2,0 C 1,1 C 0,6 C 97 % 1006,1 hPa 0,0 l/m 0 min 0 min 0 W/m 3,2 km/h (1 Bft) 100,00 %
27.02.2020 04:26 2,0 C 1,1 C 0,6 C 97 % 1006,0 hPa 0,0 l/m 0 min 0 min 0 W/m 0,0 km/h (0 Bft) 97,87 %
27.02.2020 04:28 2,0 C 1,1 C 0,6 C 97 % 1006,0 hPa 0,0 l/m 0 min 0 min 0 W/m 3,2 km/h (1 Bft) 100,00 %
27.02.2020 04:30 2,0 C 1,1 C 0,6 C 97 % 1006,0 hPa 0,0 l/m 0 min 0 min 0 W/m 3,2 km/h (1 Bft) 97,87 %
27.02.2020 04:32 2,0 C 1,1 C 0,6 C 97 % 1006,0 hPa 0,0 l/m 0 min 0 min 0 W/m 12,9 km/h (3 Bft) 97,92 %
27.02.2020 04:34 2,0 C 1,1 C 0,6 C 97 % 1006,0 hPa 0,0 l/m 0 min 0 min 0 W/m 6,4 km/h (2 Bft) 97,87 %
27.02.2020 04:36 2,0 C 1,1 C 0,6 C 97 % 1006,0 hPa 0,0 l/m 0 min 0 min 0 W/m 12,9 km/h (3 Bft) 97,83 %
27.02.2020 04:38 2,0 C 1,1 C 0,6 C 97 % 1005,9 hPa 0,0 l/m 0 min 0 min 0 W/m 3,2 km/h (1 Bft) 97,87 %
27.02.2020 04:40 2,0 C 1,1 C 0,6 C 97 % 1005,9 hPa 0,0 l/m 0 min 0 min 0 W/m 0,0 km/h (0 Bft) 95,74 %
27.02.2020 04:42 2,0 C 1,1 C 0,6 C 97 % 1005,9 hPa 0,0 l/m 0 min 0 min 0 W/m 0,0 km/h (0 Bft) 97,87 %
27.02.2020 04:44 2,0 C 1,1 C 0,6 C 97 % 1006,0 hPa 0,0 l/m 0 min 0 min 0 W/m 3,2 km/h (1 Bft) 97,87 %
27.02.2020 04:46 2,0 C 1,1 C 0,6 C 97 % 1005,9 hPa 0,0 l/m 0 min 0 min 0 W/m 3,2 km/h (1 Bft) 97,56 %
27.02.2020 04:48 2,0 C 1,1 C 0,6 C 97 % 1006,0 hPa 0,0 l/m 0 min 0 min 0 W/m 3,2 km/h (1 Bft) 97,87 %
27.02.2020 04:50 2,0 C 1,1 C 0,6 C 97 % 1006,0 hPa 0,0 l/m 0 min 0 min 0 W/m 6,4 km/h (2 Bft) 97,87 %
27.02.2020 04:52 2,0 C 1,1 C 0,6 C 97 % 1006,0 hPa 0,0 l/m 0 min 0 min 0 W/m 0,0 km/h (0 Bft) 97,96 %
27.02.2020 04:54 2,0 C 1,1 C 0,6 C 97 % 1006,0 hPa 0,0 l/m 0 min 0 min 0 W/m 6,4 km/h (2 Bft) 97,87 %
27.02.2020 04:56 2,0 C 1,1 C 0,6 C 97 % 1006,0 hPa 0,0 l/m 0 min 0 min 0 W/m 12,9 km/h (3 Bft) 97,92 %
27.02.2020 04:58 2,0 C 1,1 C 0,6 C 97 % 1006,0 hPa 0,0 l/m 0 min 0 min 0 W/m 3,2 km/h (1 Bft) 95,74 %
27.02.2020 05:00 2,0 C 1,1 C 0,6 C 97 % 1005,9 hPa 0,0 l/m 0 min 0 min 0 W/m 6,4 km/h (2 Bft) 95,83 %
27.02.2020 05:02 2,0 C 1,1 C 0,6 C 97 % 1005,8 hPa 0,0 l/m 0 min 0 min 0 W/m 12,9 km/h (3 Bft) 97,87 %
27.02.2020 05:04 2,0 C 1,1 C 0,6 C 97 % 1005,8 hPa 0,0 l/m 0 min 0 min 0 W/m 0,0 km/h (0 Bft) 93,62 %
27.02.2020 05:06 2,0 C 1,1 C 0,6 C 97 % 1005,8 hPa 0,0 l/m 0 min 0 min 0 W/m 0,0 km/h (0 Bft) 95,12 %
27.02.2020 05:08 2,0 C 1,1 C 0,6 C 97 % 1005,8 hPa 0,0 l/m 0 min 0 min 0 W/m 6,4 km/h (2 Bft) 95,83 %
27.02.2020 05:10 2,0 C 1,1 C 0,6 C 97 % 1005,8 hPa 0,0 l/m 0 min 0 min 0 W/m 12,9 km/h (3 Bft) 93,75 %
27.02.2020 05:12 2,1 C 1,1 C 0,6 C 97 % 1005,7 hPa 0,0 l/m 0 min 0 min 0 W/m 6,4 km/h (2 Bft) 93,62 %
27.02.2020 05:14 2,0 C 1,1 C 0,6 C 97 % 1005,7 hPa 0,0 l/m 0 min 0 min 0 W/m 0,0 km/h (0 Bft) 95,74 %
27.02.2020 05:16 2,1 C 1,1 C 0,6 C 97 % 1005,7 hPa 0,0 l/m 0 min 0 min 0 W/m 6,4 km/h (2 Bft) 95,74 %
27.02.2020 05:18 2,1 C 1,1 C 1,1 C 97 % 1005,6 hPa 0,0 l/m 0 min 0 min 0 W/m 0,0 km/h (0 Bft) 95,83 %
27.02.2020 05:20 2,1 C 1,1 C 1,1 C 97 % 1005,6 hPa 0,0 l/m 0 min 0 min 0 W/m 16,1 km/h (3 Bft) 95,83 %
27.02.2020 05:22 2,1 C 1,1 C 1,1 C 97 % 1005,6 hPa 0,0 l/m 0 min 0 min 0 W/m 6,4 km/h (2 Bft) 93,62 %
27.02.2020 05:24 2,1 C 1,1 C 0,6 C 97 % 1005,6 hPa 0,0 l/m 0 min 0 min 0 W/m 3,2 km/h (1 Bft) 97,87 %
27.02.2020 05:26 2,1 C 1,1 C 0,6 C 97 % 1005,6 hPa 0,0 l/m 0 min 0 min 0 W/m 0,0 km/h (0 Bft) 95,74 %
27.02.2020 05:28 2,1 C 1,1 C 1,1 C 97 % 1005,5 hPa 0,0 l/m 0 min 0 min 0 W/m 16,1 km/h (3 Bft) 95,74 %
27.02.2020 05:30 2,1 C 1,1 C 1,1 C 97 % 1005,5 hPa 0,0 l/m 0 min 0 min 0 W/m 3,2 km/h (1 Bft) 95,74 %
27.02.2020 05:32 2,1 C 1,1 C 1,1 C 97 % 1005,5 hPa 0,0 l/m 0 min 0 min 0 W/m 3,2 km/h (1 Bft) 91,49 %
27.02.2020 05:34 2,1 C 1,1 C 1,1 C 97 % 1005,5 hPa 0,0 l/m 0 min 0 min 0 W/m 0,0 km/h (0 Bft) 97,83 %
27.02.2020 05:36 2,1 C 1,1 C 1,1 C 97 % 1005,5 hPa 0,0 l/m 0 min 0 min 0 W/m 6,4 km/h (2 Bft) 95,74 %
27.02.2020 05:38 2,1 C 1,1 C 1,1 C 97 % 1005,5 hPa 0,0 l/m 0 min 0 min 0 W/m 12,9 km/h (3 Bft) 97,87 %
27.02.2020 05:43 2,1 C 1,1 C 1,1 C 97 % 1005,4 hPa 0,0 l/m 0 min 0 min 0 W/m 3,2 km/h (1 Bft) 97,56 %
27.02.2020 05:44 2,1 C 1,1 C 1,1 C 97 % 1005,4 hPa 0,0 l/m 0 min 0 min 0 W/m 0,0 km/h (0 Bft) 100,00 %
27.02.2020 05:46 2,0 C 1,1 C 1,1 C 97 % 1005,4 hPa 0,0 l/m 0 min 0 min 0 W/m 19,3 km/h (3 Bft) 93,62 %
27.02.2020 05:48 2,0 C 1,1 C 1,1 C 97 % 1005,3 hPa 0,0 l/m 0 min 0 min 0 W/m 3,2 km/h (1 Bft) 93,62 %
27.02.2020 05:50 2,1 C 1,1 C 1,1 C 97 % 1005,2 hPa 0,0 l/m 0 min 0 min 0 W/m 6,4 km/h (2 Bft) 95,74 %
27.02.2020 05:52 2,0 C 1,1 C 1,1 C 97 % 1005,2 hPa 0,0 l/m 0 min 0 min 0 W/m 16,1 km/h (3 Bft) 95,74 %
27.02.2020 05:54 2,1 C 1,1 C 1,1 C 97 % 1005,1 hPa 0,0 l/m 0 min 0 min 0 W/m 16,1 km/h (3 Bft) 95,74 %
27.02.2020 05:56 2,1 C 1,1 C 1,1 C 97 % 1005,1 hPa 0,0 l/m 0 min 0 min 0 W/m 6,4 km/h (2 Bft) 95,65 %
27.02.2020 05:58 2,1 C 1,1 C 0,6 C 97 % 1005,0 hPa 0,0 l/m 0 min 0 min 0 W/m 3,2 km/h (1 Bft) 95,74 %
27.02.2020 06:00 2,1 C 1,1 C 0,6 C 97 % 1005,1 hPa 0,0 l/m 0 min 0 min 0 W/m 6,4 km/h (2 Bft) 93,62 %
27.02.2020 06:02 2,0 C 1,1 C 0,6 C 97 % 1005,1 hPa 0,0 l/m 0 min 0 min 0 W/m 0,0 km/h (0 Bft) 97,67 %
27.02.2020 06:04 2,0 C 1,1 C 0,6 C 97 % 1005,0 hPa 0,0 l/m 0 min 0 min 0 W/m 3,2 km/h (1 Bft) 97,87 %
27.02.2020 06:08 2,0 C 1,1 C 0,6 C 97 % 1005,0 hPa 0,0 l/m 0 min 0 min 0 W/m 0,0 km/h (0 Bft) 98,95 %
27.02.2020 06:10 2,0 C 1,1 C 0,6 C 97 % 1005,0 hPa 0,0 l/m 0 min 0 min 0 W/m 0,0 km/h (0 Bft) 100,00 %
27.02.2020 06:12 2,0 C 1,1 C 0,6 C 97 % 1004,9 hPa 0,0 l/m 0 min 0 min 0 W/m 6,4 km/h (2 Bft) 100,00 %
27.02.2020 06:14 2,0 C 1,1 C 0,6 C 97 % 1004,9 hPa 0,0 l/m 0 min 0 min 0 W/m 0,0 km/h (0 Bft) 97,92 %
27.02.2020 06:16 2,0 C 1,1 C 0,6 C 97 % 1004,9 hPa 0,0 l/m 0 min 0 min 0 W/m 0,0 km/h (0 Bft) 97,87 %
27.02.2020 06:18 2,0 C 1,1 C 0,6 C 97 % 1004,8 hPa 0,0 l/m 0 min 0 min 0 W/m 0,0 km/h (0 Bft) 100,00 %
27.02.2020 06:20 2,0 C 1,1 C 0,6 C 97 % 1004,8 hPa 0,0 l/m 0 min 0 min 0 W/m 0,0 km/h (0 Bft) 97,83 %
27.02.2020 06:22 1,9 C 1,1 C 0,6 C 97 % 1004,8 hPa 0,0 l/m 0 min 0 min 0 W/m 3,2 km/h (1 Bft) 100,00 %
27.02.2020 06:24 1,9 C 1,1 C 0,6 C 97 % 1004,8 hPa 0,0 l/m 0 min 0 min 0 W/m 0,0 km/h (0 Bft) 100,00 %
27.02.2020 06:26 1,9 C 1,1 C 0,6 C 97 % 1004,8 hPa 0,0 l/m 0 min 0 min 0 W/m 0,0 km/h (0 Bft) 97,87 %
27.02.2020 06:28 1,9 C 1,1 C 0,6 C 97 % 1004,8 hPa 0,0 l/m 0 min 0 min 0 W/m 0,0 km/h (0 Bft) 100,00 %
27.02.2020 06:30 1,9 C 1,1 C 0,6 C 97 % 1004,7 hPa 0,0 l/m 0 min 0 min 0 W/m 3,2 km/h (1 Bft) 100,00 %
27.02.2020 06:32 1,9 C 1,1 C 0,6 C 97 % 1004,8 hPa 0,0 l/m 0 min 0 min 0 W/m 6,4 km/h (2 Bft) 100,00 %
27.02.2020 06:34 1,9 C 1,1 C 0,6 C 97 % 1004,8 hPa 0,0 l/m 0 min 0 min 0 W/m 3,2 km/h (1 Bft) 100,00 %
27.02.2020 06:36 1,9 C 1,1 C 0,6 C 97 % 1004,7 hPa 0,0 l/m 0 min 0 min 0 W/m 0,0 km/h (0 Bft) 100,00 %
27.02.2020 06:38 1,9 C 1,1 C 0,6 C 97 % 1004,6 hPa 0,0 l/m 0 min 0 min 0 W/m 0,0 km/h (0 Bft) 100,00 %
27.02.2020 06:40 1,9 C 1,1 C 0,6 C 97 % 1004,6 hPa 0,0 l/m 0 min 0 min 0 W/m 6,4 km/h (2 Bft) 100,00 %
27.02.2020 06:42 1,9 C 1,1 C 0,6 C 97 % 1004,5 hPa 0,0 l/m 0 min 0 min 0 W/m 0,0 km/h (0 Bft) 100,00 %
27.02.2020 06:44 1,9 C 1,1 C 0,6 C 97 % 1004,5 hPa 0,0 l/m 0 min 0 min 0 W/m 0,0 km/h (0 Bft) 100,00 %
27.02.2020 06:46 1,9 C 1,1 C 0,6 C 97 % 1004,5 hPa 0,0 l/m 0 min 0 min 0 W/m 0,0 km/h (0 Bft) 97,87 %
27.02.2020 06:48 1,9 C 1,1 C 0,6 C 97 % 1004,4 hPa 0,0 l/m 0 min 0 min 0 W/m 0,0 km/h (0 Bft) 100,00 %
27.02.2020 06:50 1,8 C 1,1 C 0,6 C 97 % 1004,4 hPa 0,0 l/m 0 min 0 min 0 W/m 0,0 km/h (0 Bft) 100,00 %
27.02.2020 06:52 1,8 C 1,1 C 0,6 C 97 % 1004,3 hPa 0,0 l/m 0 min 0 min 0 W/m 0,0 km/h (0 Bft) 97,87 %
27.02.2020 06:54 1,8 C 1,1 C 0,6 C 97 % 1004,2 hPa 0,0 l/m 0 min 0 min 0 W/m 0,0 km/h (0 Bft) 100,00 %
27.02.2020 06:56 1,8 C 1,1 C 0,6 C 97 % 1004,2 hPa 0,0 l/m 0 min 0 min 0 W/m 0,0 km/h (0 Bft) 100,00 %
27.02.2020 06:58 1,8 C 1,1 C 0,6 C 97 % 1004,2 hPa 0,0 l/m 0 min 0 min 0 W/m 0,0 km/h (0 Bft) 100,00 %
27.02.2020 07:00 1,8 C 1,1 C 0,6 C 97 % 1004,2 hPa 0,0 l/m 0 min 0 min 0 W/m 0,0 km/h (0 Bft) 100,00 %
27.02.2020 07:02 1,8 C 1,1 C 0,6 C 97 % 1004,2 hPa 0,0 l/m 0 min 0 min 0 W/m 0,0 km/h (0 Bft) 100,00 %
27.02.2020 07:04 1,8 C 1,1 C 0,6 C 97 % 1004,2 hPa 0,0 l/m 0 min 0 min 0 W/m 0,0 km/h (0 Bft) 100,00 %
27.02.2020 07:06 1,8 C 1,1 C 0,6 C 97 % 1004,2 hPa 0,0 l/m 0 min 0 min 0 W/m 0,0 km/h (0 Bft) 97,87 %
27.02.2020 07:08 1,8 C 1,1 C 0,6 C 97 % 1004,2 hPa 0,0 l/m 0 min 0 min 0 W/m 0,0 km/h (0 Bft) 100,00 %
27.02.2020 07:10 1,8 C 1,1 C 0,6 C 97 % 1004,1 hPa 0,0 l/m 0 min 0 min 0 W/m 0,0 km/h (0 Bft) 100,00 %
27.02.2020 07:12 1,8 C 1,1 C 0,6 C 97 % 1004,1 hPa 0,0 l/m 0 min 0 min 0 W/m 0,0 km/h (0 Bft) 100,00 %
27.02.2020 07:14 1,8 C 1,1 C 0,6 C 97 % 1004,1 hPa 0,0 l/m 0 min 0 min 0 W/m 0,0 km/h (0 Bft) 97,87 %
27.02.2020 07:16 1,8 C 1,1 C 0,6 C 97 % 1004,1 hPa 0,0 l/m 0 min 0 min 0 W/m 3,2 km/h (1 Bft) 95,74 %
27.02.2020 07:18 1,8 C 1,1 C 0,6 C 97 % 1004,0 hPa 0,0 l/m 0 min 0 min 0 W/m 3,2 km/h (1 Bft) 97,83 %
27.02.2020 07:20 1,8 C 1,1 C 0,6 C 97 % 1004,0 hPa 0,0 l/m 0 min 0 min 0 W/m 0,0 km/h (0 Bft) 97,87 %
27.02.2020 07:22 1,8 C 1,1 C 0,6 C 97 % 1004,0 hPa 0,0 l/m 0 min 0 min 0 W/m 3,2 km/h (1 Bft) 97,87 %
27.02.2020 07:24 1,8 C 1,1 C 0,6 C 97 % 1003,9 hPa 0,0 l/m 0 min 0 min 0 W/m 0,0 km/h (0 Bft) 97,56 %
27.02.2020 07:26 1,7 C 1,1 C 0,6 C 97 % 1003,9 hPa 0,0 l/m 0 min 0 min 0 W/m 0,0 km/h (0 Bft) 97,92 %
27.02.2020 07:28 1,7 C 1,1 C 0,6 C 97 % 1003,9 hPa 0,0 l/m 0 min 0 min 0 W/m 0,0 km/h (0 Bft) 97,92 %
27.02.2020 07:30 1,7 C 1,1 C 0,6 C 97 % 1003,9 hPa 0,0 l/m 0 min 0 min 0 W/m 0,0 km/h (0 Bft) 97,92 %
27.02.2020 07:32 1,7 C 1,1 C 0,6 C 97 % 1003,8 hPa 0,0 l/m 0 min 0 min 0 W/m 0,0 km/h (0 Bft) 97,92 %
27.02.2020 07:34 1,7 C 1,1 C 0,6 C 97 % 1003,8 hPa 0,0 l/m 0 min 0 min 3 W/m 0,0 km/h (0 Bft) 95,74 %
27.02.2020 07:36 1,7 C 1,1 C 0,6 C 97 % 1003,7 hPa 0,0 l/m 0 min 0 min 5 W/m 0,0 km/h (0 Bft) 95,83 %
27.02.2020 07:38 1,7 C 1,1 C 0,6 C 97 % 1003,7 hPa 0,0 l/m 0 min 0 min 7 W/m 12,9 km/h (3 Bft) 95,74 %
27.02.2020 07:40 1,7 C 1,1 C 0,6 C 97 % 1003,7 hPa 0,0 l/m 0 min 0 min 7 W/m 0,0 km/h (0 Bft) 97,83 %
27.02.2020 07:42 1,7 C 1,1 C 0,6 C 97 % 1003,7 hPa 0,0 l/m 0 min 0 min 8 W/m 3,2 km/h (1 Bft) 95,74 %
27.02.2020 07:44 1,7 C 1,1 C 0,6 C 97 % 1003,6 hPa 0,0 l/m 0 min 0 min 9 W/m 0,0 km/h (0 Bft) 93,62 %
27.02.2020 07:46 1,7 C 1,1 C 0,6 C 97 % 1003,5 hPa 0,0 l/m 0 min 0 min 10 W/m 0,0 km/h (0 Bft) 93,62 %
27.02.2020 07:48 1,7 C 1,1 C 0,6 C 97 % 1003,6 hPa 0,0 l/m 0 min 0 min 11 W/m 0,0 km/h (0 Bft) 95,12 %
27.02.2020 07:50 1,7 C 1,1 C 0,6 C 97 % 1003,5 hPa 0,0 l/m 0 min 0 min 12 W/m 0,0 km/h (0 Bft) 97,92 %
27.02.2020 07:52 1,7 C 1,1 C 0,6 C 97 % 1003,5 hPa 0,0 l/m 0 min 0 min 13 W/m 16,1 km/h (3 Bft) 95,83 %
27.02.2020 07:54 1,7 C 1,1 C 0,6 C 97 % 1003,5 hPa 0,0 l/m 0 min 0 min 15 W/m 0,0 km/h (0 Bft) 93,75 %
27.02.2020 07:56 1,7 C 1,1 C 0,6 C 97 % 1003,6 hPa 0,0 l/m 0 min 0 min 16 W/m 0,0 km/h (0 Bft) 97,87 %
27.02.2020 07:58 1,7 C 1,1 C 0,6 C 97 % 1003,5 hPa 0,0 l/m 0 min 0 min 17 W/m 12,9 km/h (3 Bft) 97,96 %
27.02.2020 08:00 1,8 C 1,1 C 0,6 C 97 % 1003,4 hPa 0,0 l/m 0 min 0 min 18 W/m 0,0 km/h (0 Bft) 97,87 %
27.02.2020 08:02 1,8 C 1,1 C 0,6 C 97 % 1003,4 hPa 0,0 l/m 0 min 0 min 18 W/m 3,2 km/h (1 Bft) 95,74 %
27.02.2020 08:04 1,8 C 1,1 C 0,6 C 97 % 1003,4 hPa 0,0 l/m 0 min 0 min 18 W/m 0,0 km/h (0 Bft) 97,67 %
27.02.2020 08:06 1,8 C 1,1 C 0,6 C 97 % 1003,5 hPa 0,0 l/m 0 min 0 min 18 W/m 0,0 km/h (0 Bft) 95,74 %
27.02.2020 08:08 1,8 C 1,1 C 0,6 C 97 % 1003,4 hPa 0,0 l/m 0 min 0 min 19 W/m 6,4 km/h (2 Bft) 97,87 %
27.02.2020 08:10 1,8 C 1,1 C 0,6 C 97 % 1003,3 hPa 0,0 l/m 0 min 0 min 22 W/m 0,0 km/h (0 Bft) 97,92 %
27.02.2020 08:12 1,8 C 1,1 C 1,1 C 97 % 1003,3 hPa 0,0 l/m 0 min 0 min 23 W/m 0,0 km/h (0 Bft) 95,83 %
27.02.2020 08:14 1,8 C 1,1 C 1,1 C 97 % 1003,3 hPa 0,0 l/m 0 min 0 min 23 W/m 0,0 km/h (0 Bft) 97,92 %
27.02.2020 08:16 1,8 C 1,1 C 1,1 C 97 % 1003,3 hPa 0,0 l/m 0 min 0 min 23 W/m 0,0 km/h (0 Bft) 97,83 %
27.02.2020 08:18 1,9 C 1,1 C 1,1 C 97 % 1003,2 hPa 0,0 l/m 0 min 0 min 23 W/m 0,0 km/h (0 Bft) 97,87 %
27.02.2020 08:20 1,9 C 1,1 C 1,1 C 97 % 1003,2 hPa 0,0 l/m 0 min 0 min 23 W/m 0,0 km/h (0 Bft) 97,87 %
27.02.2020 08:22 1,9 C 1,1 C 1,1 C 97 % 1003,1 hPa 0,0 l/m 0 min 0 min 24 W/m 0,0 km/h (0 Bft) 97,87 %
27.02.2020 08:24 1,9 C 1,7 C 1,1 C 97 % 1003,1 hPa 0,0 l/m 0 min 0 min 26 W/m 0,0 km/h (0 Bft) 97,87 %
27.02.2020 08:26 1,9 C 1,7 C 1,1 C 97 % 1003,1 hPa 0,0 l/m 0 min 0 min 28 W/m 0,0 km/h (0 Bft) 97,56 %
27.02.2020 08:28 1,9 C 1,7 C 1,1 C 97 % 1003,0 hPa 0,0 l/m 0 min 0 min 27 W/m 12,9 km/h (3 Bft) 97,92 %
27.02.2020 08:30 2,0 C 1,7 C 1,1 C 97 % 1003,0 hPa 0,0 l/m 0 min 0 min 26 W/m 3,2 km/h (1 Bft) 95,74 %
27.02.2020 08:32 2,0 C 1,7 C 1,1 C 97 % 1003,0 hPa 0,0 l/m 0 min 0 min 28 W/m 6,4 km/h (2 Bft) 97,96 %
27.02.2020 08:34 2,0 C 1,7 C 1,1 C 97 % 1003,0 hPa 0,0 l/m 0 min 0 min 30 W/m 0,0 km/h (0 Bft) 100,00 %
27.02.2020 08:36 2,1 C 1,7 C 1,1 C 97 % 1003,0 hPa 0,0 l/m 0 min 0 min 32 W/m 16,1 km/h (3 Bft) 97,92 %
27.02.2020 08:38 2,1 C 1,7 C 1,1 C 97 % 1003,0 hPa 0,0 l/m 0 min 0 min 32 W/m 0,0 km/h (0 Bft) 97,83 %
27.02.2020 08:40 2,1 C 1,7 C 1,1 C 97 % 1002,9 hPa 0,0 l/m 0 min 0 min 32 W/m 3,2 km/h (1 Bft) 97,87 %
27.02.2020 08:42 2,1 C 1,7 C 1,1 C 97 % 1002,9 hPa 0,0 l/m 0 min 0 min 33 W/m 0,0 km/h (0 Bft) 97,87 %
27.02.2020 08:44 2,1 C 1,7 C 1,1 C 97 % 1002,9 hPa 0,0 l/m 0 min 0 min 35 W/m 3,2 km/h (1 Bft) 95,74 %
27.02.2020 08:46 2,2 C 1,7 C 1,1 C 97 % 1002,9 hPa 0,0 l/m 0 min 0 min 37 W/m 0,0 km/h (0 Bft) 97,87 %
27.02.2020 08:48 2,2 C 1,7 C 1,7 C 97 % 1002,9 hPa 0,0 l/m 0 min 0 min 39 W/m 0,0 km/h (0 Bft) 97,56 %
27.02.2020 08:50 2,2 C 1,7 C 1,7 C 97 % 1002,8 hPa 0,0 l/m 0 min 0 min 40 W/m 0,0 km/h (0 Bft) 95,83 %
27.02.2020 08:52 2,2 C 1,7 C 1,7 C 97 % 1002,8 hPa 0,0 l/m 0 min 0 min 42 W/m 0,0 km/h (0 Bft) 97,92 %
27.02.2020 08:54 2,2 C 1,7 C 1,7 C 97 % 1002,8 hPa 0,0 l/m 0 min 0 min 44 W/m 0,0 km/h (0 Bft) 97,87 %
27.02.2020 08:56 2,3 C 1,7 C 1,7 C 97 % 1002,7 hPa 0,0 l/m 0 min 0 min 46 W/m 0,0 km/h (0 Bft) 97,92 %
27.02.2020 08:58 2,3 C 2,2 C 1,7 C 97 % 1002,7 hPa 0,0 l/m 0 min 0 min 48 W/m 0,0 km/h (0 Bft) 97,96 %
27.02.2020 09:00 2,3 C 2,2 C 1,7 C 97 % 1002,7 hPa 0,0 l/m 0 min 0 min 49 W/m 0,0 km/h (0 Bft) 97,87 %
27.02.2020 09:02 2,3 C 2,2 C 1,7 C 97 % 1002,6 hPa 0,0 l/m 0 min 0 min 47 W/m 0,0 km/h (0 Bft) 95,65 %
27.02.2020 09:04 2,4 C 2,2 C 1,7 C 97 % 1002,6 hPa 0,0 l/m 0 min 0 min 50 W/m 0,0 km/h (0 Bft) 97,73 %
27.02.2020 09:06 2,4 C 2,2 C 1,7 C 97 % 1002,5 hPa 0,0 l/m 0 min 0 min 54 W/m 3,2 km/h (1 Bft) 97,87 %
27.02.2020 09:08 2,4 C 2,2 C 1,7 C 97 % 1002,5 hPa 0,0 l/m 0 min 0 min 57 W/m 0,0 km/h (0 Bft) 97,92 %
27.02.2020 09:10 2,4 C 2,2 C 1,7 C 97 % 1002,4 hPa 0,0 l/m 0 min 0 min 58 W/m 0,0 km/h (0 Bft) 97,92 %
27.02.2020 09:12 2,4 C 2,2 C 1,7 C 97 % 1002,4 hPa 0,0 l/m 0 min 0 min 58 W/m 3,2 km/h (1 Bft) 97,87 %
27.02.2020 09:14 2,5 C 2,2 C 1,7 C 97 % 1002,4 hPa 0,0 l/m 0 min 0 min 60 W/m 19,3 km/h (3 Bft) 97,87 %
27.02.2020 09:16 2,5 C 2,2 C 1,7 C 97 % 1002,3 hPa 0,0 l/m 0 min 0 min 64 W/m 3,2 km/h (1 Bft) 95,74 %
27.02.2020 09:18 2,6 C 2,2 C 1,7 C 97 % 1002,3 hPa 0,0 l/m 0 min 0 min 67 W/m 3,2 km/h (1 Bft) 95,74 %
27.02.2020 09:20 2,6 C 2,2 C 2,2 C 97 % 1002,2 hPa 0,0 l/m 0 min 0 min 66 W/m 0,0 km/h (0 Bft) 95,74 %
27.02.2020 09:22 2,6 C 2,2 C 2,2 C 97 % 1002,3 hPa 0,0 l/m 0 min 0 min 65 W/m 0,0 km/h (0 Bft) 97,87 %
27.02.2020 09:24 2,6 C 2,2 C 2,2 C 97 % 1002,2 hPa 0,0 l/m 0 min 0 min 63 W/m 0,0 km/h (0 Bft) 97,87 %
27.02.2020 09:26 2,6 C 2,2 C 2,2 C 97 % 1002,1 hPa 0,0 l/m 0 min 0 min 54 W/m 6,4 km/h (2 Bft) 97,56 %
27.02.2020 09:28 2,7 C 2,2 C 2,2 C 97 % 1002,1 hPa 0,0 l/m 0 min 0 min 48 W/m 16,1 km/h (3 Bft) 97,92 %
27.02.2020 09:30 2,7 C 2,2 C 2,2 C 97 % 1002,1 hPa 0,0 l/m 0 min 0 min 42 W/m 16,1 km/h (3 Bft) 97,87 %
27.02.2020 09:32 2,7 C 2,2 C 2,2 C 96 % 1002,1 hPa 0,0 l/m 0 min 0 min 29 W/m 22,5 km/h (4 Bft) 97,92 %
27.02.2020 09:34 2,7 C 2,2 C 1,7 C 96 % 1002,0 hPa 0,0 l/m 0 min 2 min 29 W/m 19,3 km/h (3 Bft) 100,00 %
27.02.2020 09:36 2,8 C 2,2 C 1,7 C 96 % 1002,0 hPa 0,0 l/m 0 min 2 min 42 W/m 19,3 km/h (3 Bft) 100,00 %
27.02.2020 09:38 2,8 C 2,2 C 1,7 C 96 % 1001,9 hPa 0,0 l/m 0 min 0 min 59 W/m 22,5 km/h (4 Bft) 97,87 %
27.02.2020 09:40 2,8 C 2,2 C 1,7 C 96 % 1001,9 hPa 0,0 l/m 0 min 0 min 66 W/m 19,3 km/h (3 Bft) 100,00 %
27.02.2020 09:42 2,8 C 2,8 C 2,2 C 96 % 1001,8 hPa 0,0 l/m 0 min 0 min 71 W/m 19,3 km/h (3 Bft) 100,00 %
27.02.2020 09:44 2,8 C 2,8 C 2,2 C 96 % 1001,8 hPa 0,0 l/m 0 min 0 min 77 W/m 19,3 km/h (3 Bft) 100,00 %
27.02.2020 09:46 2,9 C 2,8 C 2,2 C 96 % 1001,8 hPa 0,0 l/m 0 min 0 min 82 W/m 22,5 km/h (4 Bft) 95,74 %
27.02.2020 09:48 2,9 C 2,8 C 2,2 C 96 % 1001,7 hPa 0,0 l/m 0 min 0 min 87 W/m 16,1 km/h (3 Bft) 93,48 %
27.02.2020 09:50 2,9 C 2,8 C 2,2 C 96 % 1001,7 hPa 0,0 l/m 0 min 0 min 93 W/m 22,5 km/h (4 Bft) 97,62 %
27.02.2020 09:52 2,9 C 3,3 C 2,2 C 96 % 1001,6 hPa 0,0 l/m 0 min 0 min 102 W/m 19,3 km/h (3 Bft) 95,74 %
27.02.2020 09:54 3,0 C 3,3 C 2,2 C 96 % 1001,6 hPa 0,0 l/m 0 min 0 min 101 W/m 19,3 km/h (3 Bft) 95,83 %
27.02.2020 09:56 3,1 C 3,3 C 2,2 C 96 % 1001,5 hPa 0,0 l/m 0 min 0 min 93 W/m 19,3 km/h (3 Bft) 97,87 %
27.02.2020 09:58 3,1 C 3,3 C 2,2 C 96 % 1001,5 hPa 0,0 l/m 0 min 0 min 94 W/m 16,1 km/h (3 Bft) 96,00 %
27.02.2020 10:00 3,1 C 3,3 C 2,8 C 95 % 1001,4 hPa 0,0 l/m 0 min 0 min 100 W/m 22,5 km/h (4 Bft) 97,87 %
27.02.2020 10:02 3,1 C 3,3 C 2,8 C 95 % 1001,4 hPa 0,0 l/m 0 min 0 min 104 W/m 22,5 km/h (4 Bft) 97,87 %
27.02.2020 10:04 3,2 C 3,3 C 2,8 C 95 % 1001,3 hPa 0,0 l/m 0 min 0 min 108 W/m 12,9 km/h (3 Bft) 97,56 %
27.02.2020 10:06 3,2 C 3,3 C 2,8 C 95 % 1001,3 hPa 0,0 l/m 0 min 0 min 113 W/m 19,3 km/h (3 Bft) 97,92 %
27.02.2020 10:08 3,2 C 3,3 C 2,8 C 95 % 1001,2 hPa 0,0 l/m 0 min 0 min 121 W/m 16,1 km/h (3 Bft) 97,92 %
27.02.2020 10:10 3,3 C 3,9 C 2,8 C 95 % 1001,1 hPa 0,0 l/m 0 min 0 min 132 W/m 22,5 km/h (4 Bft) 97,92 %
27.02.2020 10:12 3,3 C 3,9 C 3,3 C 95 % 1001,0 hPa 0,0 l/m 0 min 0 min 134 W/m 12,9 km/h (3 Bft) 95,83 %
27.02.2020 10:14 3,4 C 3,9 C 3,3 C 95 % 1001,0 hPa 0,0 l/m 0 min 0 min 133 W/m 16,1 km/h (3 Bft) 95,74 %
27.02.2020 10:16 3,4 C 3,9 C 3,3 C 95 % 1000,9 hPa 0,0 l/m 0 min 0 min 130 W/m 12,9 km/h (3 Bft) 97,92 %
27.02.2020 10:18 3,4 C 3,9 C 3,3 C 95 % 1000,9 hPa 0,0 l/m 0 min 0 min 130 W/m 19,3 km/h (3 Bft) 97,87 %
27.02.2020 10:20 3,4 C 3,9 C 3,3 C 95 % 1000,9 hPa 0,0 l/m 0 min 0 min 133 W/m 35,4 km/h (5 Bft) 97,87 %
27.02.2020 10:22 3,5 C 3,9 C 3,3 C 95 % 1000,8 hPa 0,0 l/m 0 min 0 min 135 W/m 19,3 km/h (3 Bft) 90,24 %
27.02.2020 10:24 3,6 C 3,9 C 3,3 C 94 % 1000,8 hPa 0,0 l/m 0 min 0 min 138 W/m 19,3 km/h (3 Bft) 97,92 %
27.02.2020 10:26 3,6 C 3,9 C 3,3 C 94 % 1000,7 hPa 0,0 l/m 0 min 0 min 137 W/m 22,5 km/h (4 Bft) 97,87 %
27.02.2020 10:28 3,6 C 3,9 C 3,3 C 94 % 1000,6 hPa 0,0 l/m 0 min 0 min 134 W/m 16,1 km/h (3 Bft) 97,92 %
27.02.2020 10:30 3,6 C 3,9 C 3,3 C 94 % 1000,6 hPa 0,0 l/m 0 min 0 min 134 W/m 22,5 km/h (4 Bft) 97,92 %
27.02.2020 10:32 3,6 C 3,9 C 3,3 C 94 % 1000,6 hPa 0,0 l/m 0 min 0 min 136 W/m 22,5 km/h (4 Bft) 97,96 %
27.02.2020 10:34 3,7 C 3,9 C 3,3 C 94 % 1000,4 hPa 0,0 l/m 0 min 0 min 139 W/m 22,5 km/h (4 Bft) 97,87 %
27.02.2020 10:36 3,7 C 3,9 C 3,3 C 94 % 1000,5 hPa 0,0 l/m 0 min 0 min 141 W/m 12,9 km/h (3 Bft) 95,65 %
27.02.2020 10:38 3,8 C 3,9 C 3,3 C 94 % 1000,4 hPa 0,0 l/m 0 min 0 min 139 W/m 19,3 km/h (3 Bft) 97,87 %
27.02.2020 10:40 3,8 C 3,9 C 3,3 C 93 % 1000,5 hPa 0,0 l/m 0 min 0 min 134 W/m 19,3 km/h (3 Bft) 97,87 %
27.02.2020 10:42 3,8 C 3,9 C 3,3 C 94 % 1000,3 hPa 0,0 l/m 0 min 0 min 135 W/m 19,3 km/h (3 Bft) 97,87 %
27.02.2020 10:44 3,8 C 4,4 C 3,9 C 93 % 1000,3 hPa 0,0 l/m 0 min 0 min 139 W/m 16,1 km/h (3 Bft) 97,56 %
27.02.2020 10:46 3,9 C 4,4 C 3,9 C 93 % 1000,3 hPa 0,0 l/m 0 min 0 min 143 W/m 19,3 km/h (3 Bft) 97,92 %
27.02.2020 10:48 3,9 C 4,4 C 3,9 C 93 % 1000,2 hPa 0,0 l/m 0 min 0 min 146 W/m 19,3 km/h (3 Bft) 97,92 %
27.02.2020 10:50 3,9 C 4,4 C 3,9 C 93 % 1000,2 hPa 0,0 l/m 0 min 0 min 151 W/m 19,3 km/h (3 Bft) 97,87 %
27.02.2020 10:52 4,0 C 4,4 C 3,9 C 93 % 1000,1 hPa 0,0 l/m 0 min 0 min 152 W/m 25,7 km/h (4 Bft) 95,83 %
27.02.2020 10:54 4,0 C 4,4 C 3,9 C 93 % 1000,1 hPa 0,0 l/m 0 min 0 min 149 W/m 22,5 km/h (4 Bft) 97,92 %
27.02.2020 10:56 4,1 C 4,4 C 3,9 C 92 % 1000,1 hPa 0,0 l/m 0 min 0 min 142 W/m 22,5 km/h (4 Bft) 97,92 %
27.02.2020 10:58 4,1 C 4,4 C 3,9 C 92 % 1000,0 hPa 0,0 l/m 0 min 0 min 131 W/m 19,3 km/h (3 Bft) 97,83 %
27.02.2020 11:00 4,1 C 4,4 C 3,9 C 92 % 999,9 hPa 0,0 l/m 0 min 0 min 126 W/m 22,5 km/h (4 Bft) 97,87 %
27.02.2020 11:02 4,1 C 4,4 C 3,9 C 92 % 999,9 hPa 0,0 l/m 0 min 0 min 125 W/m 22,5 km/h (4 Bft) 97,62 %
27.02.2020 11:04 4,1 C 4,4 C 3,9 C 92 % 999,8 hPa 0,0 l/m 0 min 0 min 128 W/m 29,0 km/h (5 Bft) 98,00 %
27.02.2020 11:06 4,2 C 4,4 C 3,9 C 92 % 999,8 hPa 0,0 l/m 0 min 0 min 127 W/m 29,0 km/h (5 Bft) 97,87 %
27.02.2020 11:08 4,2 C 4,4 C 3,9 C 92 % 999,7 hPa 0,0 l/m 0 min 0 min 127 W/m 19,3 km/h (3 Bft) 95,83 %
27.02.2020 11:10 4,2 C 4,4 C 3,9 C 91 % 999,7 hPa 0,0 l/m 0 min 0 min 127 W/m 19,3 km/h (3 Bft) 97,87 %
27.02.2020 11:12 4,2 C 4,4 C 3,9 C 91 % 999,6 hPa 0,0 l/m 0 min 0 min 124 W/m 19,3 km/h (3 Bft) 100,00 %
27.02.2020 11:14 4,2 C 4,4 C 3,9 C 91 % 999,6 hPa 0,0 l/m 0 min 0 min 121 W/m 22,5 km/h (4 Bft) 100,00 %
27.02.2020 11:16 4,3 C 4,4 C 3,9 C 91 % 999,6 hPa 0,0 l/m 0 min 0 min 121 W/m 22,5 km/h (4 Bft) 100,00 %
27.02.2020 11:18 4,3 C 4,4 C 3,9 C 90 % 999,6 hPa 0,0 l/m 0 min 0 min 125 W/m 19,3 km/h (3 Bft) 97,87 %
27.02.2020 11:20 4,3 C 4,4 C 3,9 C 90 % 999,5 hPa 0,0 l/m 0 min 0 min 128 W/m 22,5 km/h (4 Bft) 95,65 %
27.02.2020 11:22 4,3 C 4,4 C 3,9 C 90 % 999,5 hPa 0,0 l/m 0 min 0 min 128 W/m 19,3 km/h (3 Bft) 100,00 %
27.02.2020 11:24 4,3 C 4,4 C 3,9 C 90 % 999,5 hPa 0,0 l/m 0 min 0 min 128 W/m 22,5 km/h (4 Bft) 100,00 %
27.02.2020 11:26 4,3 C 4,4 C 3,9 C 90 % 999,4 hPa 0,0 l/m 0 min 0 min 129 W/m 22,5 km/h (4 Bft) 100,00 %
27.02.2020 11:28 4,4 C 4,4 C 3,9 C 90 % 999,3 hPa 0,0 l/m 0 min 0 min 132 W/m 29,0 km/h (5 Bft) 100,00 %
27.02.2020 11:30 4,4 C 4,4 C 3,9 C 89 % 999,2 hPa 0,0 l/m 0 min 0 min 129 W/m 35,4 km/h (5 Bft) 100,00 %
27.02.2020 11:32 4,4 C 4,4 C 3,9 C 89 % 999,2 hPa 0,0 l/m 0 min 0 min 132 W/m 32,2 km/h (5 Bft) 100,00 %
27.02.2020 11:34 4,4 C 4,4 C 3,9 C 89 % 999,2 hPa 0,0 l/m 0 min 0 min 129 W/m 22,5 km/h (4 Bft) 100,00 %
27.02.2020 11:36 4,4 C 4,4 C 3,9 C 89 % 999,1 hPa 0,0 l/m 0 min 0 min 128 W/m 29,0 km/h (5 Bft) 100,00 %
27.02.2020 11:38 4,5 C 4,4 C 3,9 C 88 % 999,1 hPa 0,0 l/m 0 min 0 min 124 W/m 16,1 km/h (3 Bft) 100,00 %
27.02.2020 11:40 4,5 C 4,4 C 3,9 C 88 % 999,0 hPa 0,0 l/m 0 min 0 min 119 W/m 29,0 km/h (5 Bft) 97,87 %
27.02.2020 11:42 4,5 C 4,4 C 3,9 C 88 % 999,0 hPa 0,0 l/m 0 min 0 min 117 W/m 22,5 km/h (4 Bft) 97,87 %
27.02.2020 11:44 4,5 C 4,4 C 3,9 C 88 % 998,8 hPa 0,0 l/m 0 min 2 min 117 W/m 22,5 km/h (4 Bft) 100,00 %
27.02.2020 11:46 4,6 C 4,4 C 3,9 C 88 % 998,8 hPa 0,0 l/m 0 min 0 min 127 W/m 25,7 km/h (4 Bft) 95,74 %
27.02.2020 11:48 4,6 C 3,9 C 3,3 C 88 % 998,8 hPa 0,0 l/m 0 min 2 min 127 W/m 22,5 km/h (4 Bft) 97,56 %
27.02.2020 11:50 4,6 C 3,9 C 3,3 C 88 % 998,7 hPa 0,0 l/m 0 min 0 min 133 W/m 38,6 km/h (5 Bft) 97,92 %
27.02.2020 11:52 4,6 C 3,9 C 3,3 C 88 % 998,7 hPa 0,0 l/m 0 min 0 min 132 W/m 29,0 km/h (5 Bft) 97,92 %
27.02.2020 11:54 4,6 C 3,9 C 3,3 C 88 % 998,6 hPa 0,0 l/m 0 min 2 min 125 W/m 22,5 km/h (4 Bft) 97,92 %
27.02.2020 11:56 4,6 C 3,9 C 3,3 C 88 % 998,5 hPa 0,0 l/m 0 min 2 min 123 W/m 25,7 km/h (4 Bft) 97,92 %
27.02.2020 11:58 4,6 C 3,3 C 3,3 C 87 % 998,5 hPa 0,0 l/m 0 min 0 min 118 W/m 25,7 km/h (4 Bft) 95,83 %
27.02.2020 12:00 4,5 C 3,3 C 2,8 C 87 % 998,4 hPa 0,0 l/m 0 min 2 min 115 W/m 29,0 km/h (5 Bft) 97,87 %
27.02.2020 12:02 4,5 C 2,8 C 2,8 C 88 % 998,4 hPa 0,0 l/m 0 min 2 min 119 W/m 29,0 km/h (5 Bft) 97,87 %
27.02.2020 12:04 4,4 C 2,8 C 2,8 C 88 % 998,4 hPa 0,0 l/m 0 min 2 min 125 W/m 29,0 km/h (5 Bft) 95,74 %
27.02.2020 12:08 4,4 C 2,8 C 2,8 C 88 % 998,3 hPa 0,0 l/m 0 min 4 min 128 W/m 29,0 km/h (5 Bft) 75,58 %
27.02.2020 12:10 4,4 C 2,8 C 2,2 C 88 % 998,3 hPa 0,0 l/m 0 min 2 min 125 W/m 35,4 km/h (5 Bft) 95,83 %
27.02.2020 12:12 4,3 C 2,8 C 2,8 C 89 % 998,3 hPa 0,0 l/m 0 min 2 min 128 W/m 19,3 km/h (3 Bft) 97,92 %
27.02.2020 12:14 4,3 C 2,8 C 2,8 C 89 % 998,2 hPa 0,0 l/m 0 min 2 min 127 W/m 19,3 km/h (3 Bft) 91,49 %
27.02.2020 12:16 4,3 C 2,8 C 2,2 C 89 % 998,1 hPa 0,0 l/m 0 min 2 min 121 W/m 22,5 km/h (4 Bft) 95,83 %
27.02.2020 12:18 4,3 C 2,8 C 2,2 C 89 % 998,1 hPa 0,0 l/m 0 min 2 min 118 W/m 25,7 km/h (4 Bft) 95,83 %
27.02.2020 12:20 4,2 C 2,8 C 2,2 C 89 % 998,1 hPa 0,0 l/m 0 min 2 min 103 W/m 25,7 km/h (4 Bft) 95,74 %
27.02.2020 12:22 4,2 C 2,8 C 2,2 C 90 % 998,0 hPa 0,0 l/m 0 min 2 min 94 W/m 22,5 km/h (4 Bft) 95,74 %
27.02.2020 12:24 4,2 C 2,8 C 2,2 C 90 % 997,9 hPa 0,0 l/m 0 min 2 min 80 W/m 19,3 km/h (3 Bft) 93,62 %
27.02.2020 12:26 4,2 C 2,8 C 2,2 C 90 % 997,9 hPa 0,0 l/m 0 min 2 min 97 W/m 25,7 km/h (4 Bft) 95,74 %
27.02.2020 12:28 4,1 C 2,8 C 2,2 C 90 % 997,9 hPa 0,2 l/m 0 min 2 min 111 W/m 22,5 km/h (4 Bft) 95,74 %
27.02.2020 12:30 4,1 C 2,2 C 2,2 C 90 % 997,8 hPa 0,0 l/m 0 min 2 min 112 W/m 35,4 km/h (5 Bft) 93,48 %
27.02.2020 12:32 4,0 C 2,2 C 2,2 C 90 % 997,7 hPa 0,0 l/m 0 min 2 min 108 W/m 29,0 km/h (5 Bft) 95,35 %
27.02.2020 12:34 3,9 C 2,2 C 2,2 C 91 % 997,7 hPa 0,0 l/m 0 min 2 min 114 W/m 22,5 km/h (4 Bft) 95,65 %
27.02.2020 12:36 3,9 C 2,2 C 2,2 C 91 % 997,7 hPa 0,0 l/m 0 min 2 min 117 W/m 22,5 km/h (4 Bft) 97,92 %
27.02.2020 12:38 3,8 C 2,2 C 2,2 C 91 % 997,7 hPa 0,0 l/m 0 min 2 min 115 W/m 19,3 km/h (3 Bft) 97,92 %
27.02.2020 12:40 3,8 C 2,2 C 2,2 C 91 % 997,6 hPa 0,0 l/m 0 min 2 min 103 W/m 25,7 km/h (4 Bft) 97,92 %
27.02.2020 12:42 3,8 C 2,2 C 2,2 C 91 % 997,5 hPa 0,0 l/m 0 min 2 min 89 W/m 16,1 km/h (3 Bft) 97,92 %
27.02.2020 12:44 3,7 C 2,2 C 2,2 C 92 % 997,5 hPa 0,0 l/m 0 min 2 min 103 W/m 35,4 km/h (5 Bft) 95,74 %
27.02.2020 12:46 3,7 C 2,2 C 1,7 C 92 % 997,4 hPa 0,0 l/m 0 min 2 min 105 W/m 25,7 km/h (4 Bft) 93,62 %
27.02.2020 12:48 3,6 C 2,2 C 2,2 C 92 % 997,4 hPa 0,0 l/m 0 min 2 min 110 W/m 22,5 km/h (4 Bft) 97,87 %
27.02.2020 12:50 3,6 C 2,2 C 1,7 C 92 % 997,3 hPa 0,2 l/m 0 min 2 min 119 W/m 29,0 km/h (5 Bft) 97,87 %
27.02.2020 12:52 3,6 C 2,2 C 1,7 C 92 % 997,3 hPa 0,0 l/m 0 min 2 min 118 W/m 19,3 km/h (3 Bft) 95,74 %
27.02.2020 12:54 3,5 C 2,2 C 1,7 C 92 % 997,2 hPa 0,0 l/m 0 min 2 min 114 W/m 25,7 km/h (4 Bft) 97,83 %
27.02.2020 12:56 3,4 C 2,2 C 1,7 C 92 % 997,2 hPa 0,0 l/m 0 min 2 min 112 W/m 19,3 km/h (3 Bft) 100,00 %
27.02.2020 12:58 3,4 C 2,2 C 2,2 C 93 % 997,1 hPa 0,0 l/m 0 min 2 min 107 W/m 19,3 km/h (3 Bft) 100,00 %
27.02.2020 13:00 3,4 C 2,2 C 2,2 C 93 % 997,1 hPa 0,0 l/m 0 min 2 min 106 W/m 19,3 km/h (3 Bft) 97,92 %
27.02.2020 13:02 3,4 C 2,2 C 2,2 C 93 % 997,0 hPa 0,0 l/m 0 min 2 min 109 W/m 12,9 km/h (3 Bft) 100,00 %
27.02.2020 13:04 3,4 C 2,2 C 2,2 C 93 % 996,8 hPa 0,0 l/m 0 min 2 min 111 W/m 19,3 km/h (3 Bft) 100,00 %
27.02.2020 13:06 3,4 C 2,8 C 2,2 C 93 % 996,7 hPa 0,0 l/m 0 min 2 min 110 W/m 12,9 km/h (3 Bft) 100,00 %
27.02.2020 13:08 3,4 C 2,8 C 2,2 C 93 % 996,7 hPa 0,0 l/m 0 min 2 min 111 W/m 19,3 km/h (3 Bft) 95,74 %
27.02.2020 13:10 3,4 C 2,2 C 2,2 C 94 % 996,7 hPa 0,0 l/m 0 min 2 min 113 W/m 22,5 km/h (4 Bft) 97,87 %
27.02.2020 13:12 3,4 C 2,2 C 2,2 C 94 % 996,5 hPa 0,0 l/m 0 min 2 min 112 W/m 22,5 km/h (4 Bft) 100,00 %
27.02.2020 13:14 3,4 C 2,2 C 2,2 C 94 % 996,5 hPa 0,2 l/m 0 min 2 min 113 W/m 19,3 km/h (3 Bft) 100,00 %
27.02.2020 13:16 3,4 C 2,2 C 2,2 C 94 % 996,4 hPa 0,0 l/m 0 min 2 min 117 W/m 19,3 km/h (3 Bft) 97,92 %
27.02.2020 13:18 3,4 C 2,2 C 2,2 C 94 % 996,3 hPa 0,0 l/m 0 min 2 min 119 W/m 29,0 km/h (5 Bft) 97,92 %
27.02.2020 13:20 3,4 C 2,2 C 2,2 C 94 % 996,2 hPa 0,0 l/m 0 min 2 min 113 W/m 16,1 km/h (3 Bft) 97,87 %
27.02.2020 13:22 3,4 C 2,2 C 2,2 C 94 % 996,1 hPa 0,0 l/m 0 min 2 min 107 W/m 25,7 km/h (4 Bft) 95,83 %
27.02.2020 13:24 3,4 C 2,2 C 2,2 C 94 % 996,1 hPa 0,0 l/m 0 min 2 min 103 W/m 22,5 km/h (4 Bft) 97,92 %
27.02.2020 13:26 3,4 C 2,2 C 2,2 C 94 % 996,0 hPa 0,0 l/m 0 min 2 min 86 W/m 16,1 km/h (3 Bft) 95,83 %
27.02.2020 13:28 3,4 C 2,2 C 2,2 C 94 % 995,9 hPa 0,0 l/m 0 min 2 min 68 W/m 16,1 km/h (3 Bft) 97,83 %
27.02.2020 13:30 3,4 C 2,2 C 2,2 C 95 % 995,9 hPa 0,0 l/m 0 min 2 min 67 W/m 22,5 km/h (4 Bft) 97,87 %
27.02.2020 13:32 3,4 C 2,2 C 2,2 C 95 % 995,8 hPa 0,0 l/m 0 min 2 min 80 W/m 29,0 km/h (5 Bft) 97,87 %
27.02.2020 13:34 3,4 C 2,2 C 2,2 C 95 % 995,8 hPa 0,0 l/m 0 min 2 min 100 W/m 22,5 km/h (4 Bft) 97,87 %
27.02.2020 13:36 3,4 C 2,2 C 2,2 C 95 % 995,7 hPa 0,0 l/m 0 min 2 min 105 W/m 16,1 km/h (3 Bft) 95,74 %
27.02.2020 13:38 3,4 C 2,8 C 2,2 C 95 % 995,6 hPa 0,2 l/m 0 min 2 min 101 W/m 16,1 km/h (3 Bft) 100,00 %
27.02.2020 13:40 3,4 C 2,2 C 2,2 C 95 % 995,5 hPa 0,0 l/m 0 min 2 min 101 W/m 16,1 km/h (3 Bft) 95,83 %
27.02.2020 13:42 3,4 C 2,2 C 2,2 C 95 % 995,5 hPa 0,0 l/m 0 min 2 min 102 W/m 16,1 km/h (3 Bft) 97,92 %
27.02.2020 13:44 3,4 C 2,2 C 2,2 C 95 % 995,4 hPa 0,0 l/m 0 min 2 min 91 W/m 19,3 km/h (3 Bft) 97,87 %
27.02.2020 13:46 3,4 C 2,2 C 2,2 C 95 % 995,4 hPa 0,0 l/m 0 min 2 min 77 W/m 16,1 km/h (3 Bft) 95,83 %
27.02.2020 13:48 3,4 C 2,2 C 2,2 C 95 % 995,3 hPa 0,0 l/m 0 min 2 min 78 W/m 12,9 km/h (3 Bft) 97,92 %
27.02.2020 13:50 3,3 C 2,2 C 1,7 C 95 % 995,2 hPa 0,0 l/m 0 min 2 min 79 W/m 25,7 km/h (4 Bft) 97,92 %
27.02.2020 13:52 3,3 C 2,2 C 1,7 C 95 % 995,2 hPa 0,2 l/m 0 min 2 min 77 W/m 22,5 km/h (4 Bft) 97,83 %
27.02.2020 13:54 3,3 C 2,2 C 1,7 C 95 % 995,1 hPa 0,0 l/m 0 min 2 min 74 W/m 12,9 km/h (3 Bft) 97,87 %
27.02.2020 13:56 3,3 C 2,2 C 1,7 C 95 % 995,1 hPa 0,0 l/m 0 min 2 min 74 W/m 16,1 km/h (3 Bft) 97,87 %
27.02.2020 13:58 3,2 C 2,2 C 1,7 C 95 % 995,0 hPa 0,0 l/m 0 min 2 min 73 W/m 22,5 km/h (4 Bft) 97,56 %
27.02.2020 14:00 3,2 C 2,2 C 1,7 C 95 % 994,9 hPa 0,0 l/m 0 min 2 min 77 W/m 19,3 km/h (3 Bft) 97,92 %
27.02.2020 14:02 3,2 C 2,2 C 1,7 C 95 % 994,9 hPa 0,0 l/m 0 min 2 min 78 W/m 12,9 km/h (3 Bft) 98,00 %
27.02.2020 14:04 3,2 C 2,2 C 1,7 C 95 % 994,8 hPa 0,0 l/m 0 min 2 min 73 W/m 9,7 km/h (2 Bft) 100,00 %
27.02.2020 14:06 3,1 C 2,2 C 1,7 C 95 % 994,7 hPa 0,0 l/m 0 min 2 min 69 W/m 12,9 km/h (3 Bft) 100,00 %
27.02.2020 14:08 3,1 C 2,2 C 1,7 C 95 % 994,6 hPa 0,0 l/m 0 min 2 min 65 W/m 12,9 km/h (3 Bft) 100,00 %
27.02.2020 14:10 3,1 C 2,2 C 1,7 C 95 % 994,6 hPa 0,0 l/m 0 min 2 min 64 W/m 16,1 km/h (3 Bft) 95,74 %
27.02.2020 14:12 3,2 C 2,2 C 1,7 C 95 % 994,6 hPa 0,2 l/m 0 min 2 min 66 W/m 16,1 km/h (3 Bft) 100,00 %
27.02.2020 14:14 3,2 C 2,2 C 1,7 C 96 % 994,6 hPa 0,0 l/m 0 min 2 min 64 W/m 19,3 km/h (3 Bft) 97,83 %
27.02.2020 14:16 3,1 C 2,2 C 1,7 C 96 % 994,6 hPa 0,0 l/m 0 min 2 min 62 W/m 16,1 km/h (3 Bft) 97,87 %
27.02.2020 14:18 3,1 C 2,2 C 1,7 C 96 % 994,6 hPa 0,0 l/m 0 min 2 min 62 W/m 9,7 km/h (2 Bft) 97,87 %
27.02.2020 14:20 3,1 C 2,2 C 1,7 C 96 % 994,5 hPa 0,0 l/m 0 min 2 min 59 W/m 12,9 km/h (3 Bft) 100,00 %
27.02.2020 14:22 3,1 C 2,2 C 1,7 C 96 % 994,5 hPa 0,0 l/m 0 min 2 min 59 W/m 16,1 km/h (3 Bft) 100,00 %
27.02.2020 14:24 3,1 C 2,2 C 1,7 C 96 % 994,4 hPa 0,0 l/m 0 min 2 min 56 W/m 19,3 km/h (3 Bft) 100,00 %
27.02.2020 14:27 3,1 C 2,2 C 1,7 C 96 % 994,4 hPa 0,0 l/m 0 min 3 min 51 W/m 19,3 km/h (3 Bft) 100,00 %
27.02.2020 14:28 3,1 C 2,2 C 1,7 C 96 % 994,4 hPa 0,2 l/m 0 min 1 min 49 W/m 19,3 km/h (3 Bft) 100,00 %
27.02.2020 14:30 3,1 C 2,2 C 1,7 C 96 % 994,5 hPa 0,0 l/m 0 min 2 min 47 W/m 22,5 km/h (4 Bft) 100,00 %
27.02.2020 14:32 3,1 C 2,2 C 1,7 C 96 % 994,5 hPa 0,0 l/m 0 min 2 min 47 W/m 22,5 km/h (4 Bft) 100,00 %
27.02.2020 14:34 3,0 C 2,2 C 1,7 C 96 % 994,4 hPa 0,0 l/m 0 min 2 min 44 W/m 16,1 km/h (3 Bft) 97,92 %
27.02.2020 14:36 3,0 C 2,2 C 1,7 C 96 % 994,4 hPa 0,0 l/m 0 min 2 min 43 W/m 16,1 km/h (3 Bft) 97,87 %
27.02.2020 14:38 3,1 C 2,2 C 1,7 C 96 % 994,4 hPa 0,0 l/m 0 min 2 min 41 W/m 12,9 km/h (3 Bft) 100,00 %
27.02.2020 14:40 3,1 C 2,2 C 1,7 C 96 % 994,4 hPa 0,0 l/m 0 min 2 min 39 W/m 12,9 km/h (3 Bft) 100,00 %
27.02.2020 14:42 3,1 C 2,2 C 1,7 C 96 % 994,4 hPa 0,0 l/m 0 min 2 min 33 W/m 22,5 km/h (4 Bft) 95,74 %
27.02.2020 14:44 3,1 C 2,2 C 1,7 C 96 % 994,4 hPa 0,0 l/m 0 min 2 min 32 W/m 16,1 km/h (3 Bft) 97,06 %
27.02.2020 14:46 3,1 C 2,2 C 1,7 C 96 % 994,4 hPa 0,0 l/m 0 min 2 min 36 W/m 12,9 km/h (3 Bft) 97,56 %
27.02.2020 14:48 3,1 C 1,7 C 1,7 C 96 % 994,4 hPa 0,2 l/m 0 min 2 min 35 W/m 12,9 km/h (3 Bft) 100,00 %
27.02.2020 14:50 3,0 C 1,7 C 1,7 C 96 % 994,4 hPa 0,0 l/m 0 min 2 min 34 W/m 19,3 km/h (3 Bft) 97,92 %
27.02.2020 14:52 2,9 C 1,7 C 1,7 C 96 % 994,4 hPa 0,0 l/m 0 min 2 min 35 W/m 12,9 km/h (3 Bft) 97,92 %
27.02.2020 14:54 2,9 C 1,7 C 1,7 C 96 % 994,4 hPa 0,2 l/m 0 min 2 min 33 W/m 16,1 km/h (3 Bft) 97,87 %
27.02.2020 14:56 2,9 C 1,7 C 1,7 C 96 % 994,4 hPa 0,0 l/m 0 min 2 min 32 W/m 16,1 km/h (3 Bft) 95,83 %
27.02.2020 14:58 2,8 C 1,7 C 1,7 C 96 % 994,4 hPa 0,0 l/m 0 min 2 min 32 W/m 19,3 km/h (3 Bft) 97,92 %
27.02.2020 15:00 2,8 C 1,7 C 1,7 C 96 % 994,4 hPa 0,0 l/m 0 min 2 min 31 W/m 9,7 km/h (2 Bft) 95,74 %
27.02.2020 15:02 2,8 C 1,7 C 1,1 C 96 % 994,5 hPa 0,0 l/m 0 min 2 min 29 W/m 22,5 km/h (4 Bft) 91,30 %
27.02.2020 15:04 2,7 C 1,7 C 1,1 C 96 % 994,4 hPa 0,2 l/m 0 min 2 min 29 W/m 22,5 km/h (4 Bft) 95,35 %
27.02.2020 15:06 2,7 C 1,7 C 1,1 C 96 % 994,5 hPa 0,0 l/m 0 min 2 min 30 W/m 12,9 km/h (3 Bft) 93,75 %
27.02.2020 15:08 2,7 C 1,7 C 1,1 C 96 % 994,5 hPa 0,2 l/m 0 min 2 min 29 W/m 12,9 km/h (3 Bft) 93,75 %
27.02.2020 15:10 2,7 C 1,7 C 1,1 C 96 % 994,4 hPa 0,0 l/m 0 min 2 min 30 W/m 9,7 km/h (2 Bft) 95,83 %
27.02.2020 15:12 2,7 C 1,7 C 1,1 C 96 % 994,4 hPa 0,0 l/m 0 min 2 min 31 W/m 22,5 km/h (4 Bft) 95,74 %
27.02.2020 15:14 2,6 C 1,1 C 1,1 C 96 % 994,5 hPa 0,0 l/m 0 min 2 min 29 W/m 19,3 km/h (3 Bft) 95,74 %
27.02.2020 15:16 2,6 C 1,7 C 1,1 C 96 % 994,6 hPa 0,2 l/m 0 min 2 min 26 W/m 9,7 km/h (2 Bft) 95,74 %
27.02.2020 15:18 2,6 C 1,7 C 1,1 C 96 % 994,6 hPa 0,0 l/m 0 min 2 min 25 W/m 9,7 km/h (2 Bft) 95,74 %
27.02.2020 15:20 2,6 C 1,1 C 1,1 C 96 % 994,6 hPa 0,0 l/m 0 min 2 min 23 W/m 9,7 km/h (2 Bft) 93,62 %
27.02.2020 15:22 2,5 C 1,1 C 1,1 C 96 % 994,6 hPa 0,2 l/m 0 min 2 min 24 W/m 12,9 km/h (3 Bft) 91,49 %
27.02.2020 15:24 2,5 C 1,1 C 1,1 C 96 % 994,6 hPa 0,0 l/m 0 min 2 min 23 W/m 16,1 km/h (3 Bft) 97,56 %
27.02.2020 15:26 2,4 C 1,1 C 1,1 C 96 % 994,6 hPa 0,0 l/m 0 min 2 min 23 W/m 12,9 km/h (3 Bft) 93,75 %
27.02.2020 15:28 2,4 C 1,1 C 1,1 C 96 % 994,6 hPa 0,2 l/m 0 min 2 min 21 W/m 9,7 km/h (2 Bft) 93,62 %
27.02.2020 15:30 2,4 C 1,1 C 1,1 C 96 % 994,6 hPa 0,0 l/m 0 min 2 min 21 W/m 9,7 km/h (2 Bft) 91,67 %
27.02.2020 15:32 2,4 C 1,1 C 1,1 C 96 % 994,5 hPa 0,0 l/m 0 min 2 min 22 W/m 9,7 km/h (2 Bft) 95,83 %
27.02.2020 15:34 2,4 C 1,1 C 1,1 C 96 % 994,7 hPa 0,2 l/m 0 min 2 min 20 W/m 9,7 km/h (2 Bft) 95,83 %
27.02.2020 15:36 2,4 C 1,1 C 1,1 C 96 % 994,7 hPa 0,0 l/m 0 min 2 min 19 W/m 6,4 km/h (2 Bft) 95,74 %
27.02.2020 15:38 2,3 C 1,1 C 1,1 C 96 % 994,8 hPa 0,0 l/m 0 min 2 min 19 W/m 12,9 km/h (3 Bft) 97,87 %
27.02.2020 15:40 2,3 C 1,1 C 0,6 C 96 % 994,8 hPa 0,0 l/m 0 min 2 min 19 W/m 12,9 km/h (3 Bft) 95,74 %
27.02.2020 15:42 2,3 C 1,1 C 0,6 C 96 % 994,8 hPa 0,2 l/m 0 min 2 min 19 W/m 9,7 km/h (2 Bft) 95,74 %
27.02.2020 15:44 2,3 C 1,1 C 0,6 C 96 % 994,9 hPa 0,0 l/m 0 min 2 min 18 W/m 9,7 km/h (2 Bft) 97,87 %
27.02.2020 15:46 2,2 C 1,1 C 0,6 C 96 % 994,9 hPa 0,2 l/m 0 min 2 min 18 W/m 6,4 km/h (2 Bft) 95,74 %
27.02.2020 15:48 2,2 C 1,1 C 0,6 C 96 % 995,0 hPa 0,0 l/m 0 min 2 min 16 W/m 6,4 km/h (2 Bft) 92,68 %
27.02.2020 15:50 2,1 C 1,1 C 0,6 C 96 % 995,0 hPa 0,0 l/m 0 min 2 min 18 W/m 6,4 km/h (2 Bft) 95,83 %
27.02.2020 15:52 2,1 C 1,1 C 0,6 C 96 % 995,0 hPa 0,0 l/m 0 min 2 min 18 W/m 9,7 km/h (2 Bft) 97,87 %
27.02.2020 15:54 2,1 C 0,6 C 0,6 C 96 % 995,0 hPa 0,2 l/m 0 min 2 min 19 W/m 9,7 km/h (2 Bft) 93,75 %
27.02.2020 15:56 2,1 C 0,6 C 0,6 C 96 % 995,0 hPa 0,0 l/m 0 min 2 min 19 W/m 6,4 km/h (2 Bft) 91,67 %
27.02.2020 15:58 2,0 C 0,0 C 0,6 C 96 % 995,1 hPa 0,2 l/m 0 min 2 min 19 W/m 9,7 km/h (2 Bft) 95,83 %
27.02.2020 16:00 1,9 C 0,6 C 0,6 C 96 % 995,1 hPa 0,0 l/m 0 min 2 min 19 W/m 6,4 km/h (2 Bft) 95,74 %
27.02.2020 16:02 1,9 C 0,6 C 0,0 C 96 % 995,1 hPa 0,0 l/m 0 min 2 min 18 W/m 6,4 km/h (2 Bft) 95,74 %
27.02.2020 16:04 1,8 C 0,0 C 0,0 C 96 % 995,1 hPa 0,2 l/m 0 min 2 min 17 W/m 16,1 km/h (3 Bft) 97,67 %
27.02.2020 16:06 1,8 C 0,6 C 0,0 C 96 % 995,2 hPa 0,0 l/m 0 min 2 min 16 W/m 9,7 km/h (2 Bft) 57,45 %
27.02.2020 16:08 1,7 C 0,0 C 0,0 C 96 % 995,1 hPa 0,0 l/m 0 min 2 min 18 W/m 6,4 km/h (2 Bft) 91,67 %
27.02.2020 16:10 1,7 C 0,0 C 0,0 C 96 % 995,2 hPa 0,0 l/m 0 min 2 min 18 W/m 9,7 km/h (2 Bft) 97,37 %
27.02.2020 16:12 1,7 C 0,0 C 0,0 C 96 % 995,2 hPa 0,2 l/m 0 min 2 min 17 W/m 3,2 km/h (1 Bft) 95,74 %
27.02.2020 16:14 1,6 C 0,0 C 0,0 C 96 % 995,3 hPa 0,0 l/m 0 min 2 min 16 W/m 6,4 km/h (2 Bft) 95,74 %
27.02.2020 16:16 1,6 C 0,0 C 0,0 C 96 % 995,3 hPa 0,0 l/m 0 min 2 min 15 W/m 0,0 km/h (0 Bft) 95,74 %
27.02.2020 16:18 1,5 C 0,0 C 0,0 C 96 % 995,4 hPa 0,0 l/m 0 min 2 min 15 W/m 6,4 km/h (2 Bft) 97,87 %
27.02.2020 16:20 1,5 C 0,0 C 0,0 C 96 % 995,4 hPa 0,0 l/m 0 min 2 min 15 W/m 6,4 km/h (2 Bft) 95,74 %
27.02.2020 16:22 1,4 C -0,6 C -0,6 C 96 % 995,4 hPa 0,0 l/m 0 min 2 min 15 W/m 6,4 km/h (2 Bft) 95,65 %
27.02.2020 16:24 1,4 C -0,6 C -0,6 C 96 % 995,5 hPa 0,2 l/m 0 min 2 min 16 W/m 3,2 km/h (1 Bft) 100,00 %
27.02.2020 16:26 1,3 C -0,6 C -0,6 C 96 % 995,5 hPa 0,0 l/m 0 min 2 min 16 W/m 3,2 km/h (1 Bft) 93,62 %
27.02.2020 16:28 1,3 C -0,6 C -0,6 C 96 % 995,5 hPa 0,0 l/m 0 min 2 min 15 W/m 0,0 km/h (0 Bft) 97,87 %
27.02.2020 16:30 1,2 C -0,6 C -0,6 C 96 % 995,6 hPa 0,0 l/m 0 min 2 min 14 W/m 0,0 km/h (0 Bft) 97,92 %
27.02.2020 16:32 1,2 C 0,0 C -0,6 C 96 % 995,6 hPa 0,0 l/m 0 min 2 min 13 W/m 0,0 km/h (0 Bft) 100,00 %
27.02.2020 16:34 1,2 C -0,6 C -0,6 C 96 % 995,7 hPa 0,0 l/m 0 min 2 min 13 W/m 0,0 km/h (0 Bft) 100,00 %
27.02.2020 16:36 1,1 C -0,6 C -0,6 C 96 % 995,7 hPa 0,0 l/m 0 min 2 min 14 W/m 0,0 km/h (0 Bft) 100,00 %
27.02.2020 16:38 1,1 C -0,6 C -1,1 C 96 % 995,8 hPa 0,2 l/m 0 min 2 min 12 W/m 6,4 km/h (2 Bft) 100,00 %
27.02.2020 16:40 1,1 C -0,6 C -0,6 C 96 % 995,9 hPa 0,0 l/m 0 min 2 min 12 W/m 3,2 km/h (1 Bft) 100,00 %
27.02.2020 16:42 1,0 C -0,6 C -0,6 C 96 % 996,0 hPa 0,0 l/m 0 min 2 min 12 W/m 0,0 km/h (0 Bft) 100,00 %
27.02.2020 16:44 1,0 C -0,6 C -1,1 C 96 % 996,0 hPa 0,0 l/m 0 min 2 min 12 W/m 0,0 km/h (0 Bft) 100,00 %
27.02.2020 16:46 0,9 C -0,6 C -1,1 C 96 % 996,1 hPa 0,0 l/m 0 min 2 min 12 W/m 0,0 km/h (0 Bft) 97,83 %
27.02.2020 16:48 0,9 C -0,6 C -1,1 C 96 % 996,2 hPa 0,0 l/m 0 min 2 min 12 W/m 0,0 km/h (0 Bft) 100,00 %
27.02.2020 16:50 0,9 C -0,6 C -1,1 C 96 % 996,2 hPa 0,0 l/m 0 min 2 min 12 W/m 0,0 km/h (0 Bft) 97,56 %
27.02.2020 16:52 0,8 C -0,6 C -1,1 C 96 % 996,3 hPa 0,0 l/m 0 min 2 min 12 W/m 0,0 km/h (0 Bft) 97,92 %
27.02.2020 16:54 0,8 C -0,6 C -1,1 C 96 % 996,3 hPa 0,0 l/m 0 min 2 min 11 W/m 0,0 km/h (0 Bft) 100,00 %
27.02.2020 16:56 0,8 C -0,6 C -1,1 C 96 % 996,4 hPa 0,0 l/m 0 min 2 min 11 W/m 0,0 km/h (0 Bft) 97,92 %
27.02.2020 16:58 0,8 C -0,6 C -1,1 C 96 % 996,5 hPa 0,0 l/m 0 min 2 min 11 W/m 0,0 km/h (0 Bft) 97,96 %
27.02.2020 17:00 0,8 C -0,6 C -1,1 C 96 % 996,5 hPa 0,0 l/m 0 min 2 min 11 W/m 3,2 km/h (1 Bft) 100,00 %
27.02.2020 17:02 0,7 C -0,6 C -1,1 C 96 % 996,5 hPa 0,0 l/m 0 min 2 min 10 W/m 0,0 km/h (0 Bft) 100,00 %
27.02.2020 17:04 0,7 C -0,6 C -1,1 C 96 % 996,6 hPa 0,0 l/m 0 min 2 min 9 W/m 0,0 km/h (0 Bft) 100,00 %
27.02.2020 17:06 0,6 C -0,6 C -1,1 C 96 % 996,7 hPa 0,0 l/m 0 min 2 min 9 W/m 3,2 km/h (1 Bft) 100,00 %
27.02.2020 17:08 0,6 C -0,6 C -1,1 C 96 % 996,7 hPa 0,0 l/m 0 min 2 min 9 W/m 0,0 km/h (0 Bft) 100,00 %
27.02.2020 17:10 0,6 C -0,6 C -1,1 C 96 % 996,8 hPa 0,2 l/m 0 min 2 min 9 W/m 0,0 km/h (0 Bft) 100,00 %
27.02.2020 17:12 0,6 C -0,6 C -1,1 C 96 % 996,9 hPa 0,0 l/m 0 min 2 min 7 W/m 3,2 km/h (1 Bft) 100,00 %
27.02.2020 17:14 0,6 C -0,6 C -1,1 C 96 % 997,0 hPa 0,0 l/m 0 min 2 min 7 W/m 0,0 km/h (0 Bft) 100,00 %
27.02.2020 17:16 0,6 C -0,6 C -1,1 C 96 % 997,0 hPa 0,0 l/m 0 min 2 min 9 W/m 3,2 km/h (1 Bft) 97,92 %
27.02.2020 17:18 0,6 C -0,6 C -1,1 C 96 % 997,1 hPa 0,0 l/m 0 min 2 min 9 W/m 3,2 km/h (1 Bft) 100,00 %
27.02.2020 17:20 0,6 C -0,6 C -1,1 C 96 % 997,1 hPa 0,0 l/m 0 min 2 min 9 W/m 3,2 km/h (1 Bft) 100,00 %
27.02.2020 17:22 0,6 C -0,6 C -1,1 C 96 % 997,2 hPa 0,0 l/m 0 min 2 min 7 W/m 3,2 km/h (1 Bft) 100,00 %
27.02.2020 17:24 0,6 C -0,6 C -1,1 C 96 % 997,3 hPa 0,0 l/m 0 min 2 min 7 W/m 0,0 km/h (0 Bft) 100,00 %
27.02.2020 17:26 0,6 C -0,6 C -1,1 C 96 % 997,3 hPa 0,2 l/m 0 min 2 min 7 W/m 0,0 km/h (0 Bft) 100,00 %
27.02.2020 17:28 0,6 C -0,6 C -1,1 C 96 % 997,4 hPa 0,0 l/m 0 min 2 min 7 W/m 6,4 km/h (2 Bft) 95,12 %
27.02.2020 17:30 0,6 C -0,6 C -1,1 C 96 % 997,4 hPa 0,0 l/m 0 min 2 min 7 W/m 0,0 km/h (0 Bft) 100,00 %
27.02.2020 17:32 0,6 C -0,6 C -1,1 C 97 % 997,6 hPa 0,0 l/m 0 min 2 min 5 W/m 0,0 km/h (0 Bft) 100,00 %
27.02.2020 17:34 0,6 C -0,6 C -1,1 C 97 % 997,6 hPa 0,0 l/m 0 min 2 min 5 W/m 0,0 km/h (0 Bft) 97,92 %
27.02.2020 17:36 0,6 C -0,6 C -1,1 C 97 % 997,6 hPa 0,0 l/m 0 min 2 min 5 W/m 0,0 km/h (0 Bft) 100,00 %
27.02.2020 17:38 0,6 C -0,6 C -1,1 C 97 % 997,7 hPa 0,0 l/m 0 min 2 min 2 W/m 0,0 km/h (0 Bft) 100,00 %
27.02.2020 17:40 0,6 C -0,6 C -1,1 C 97 % 997,8 hPa 0,0 l/m 0 min 2 min 0 W/m 0,0 km/h (0 Bft) 100,00 %
27.02.2020 17:42 0,6 C -0,6 C -1,1 C 97 % 997,8 hPa 0,2 l/m 0 min 2 min 0 W/m 0,0 km/h (0 Bft) 100,00 %
27.02.2020 17:44 0,6 C -0,6 C -1,1 C 97 % 997,9 hPa 0,0 l/m 0 min 2 min 0 W/m 0,0 km/h (0 Bft) 95,74 %
27.02.2020 17:46 0,6 C -0,6 C -1,1 C 97 % 998,0 hPa 0,0 l/m 0 min 2 min 0 W/m 0,0 km/h (0 Bft) 95,74 %
27.02.2020 17:48 0,6 C -0,6 C -1,1 C 97 % 998,0 hPa 0,0 l/m 0 min 2 min 0 W/m 0,0 km/h (0 Bft) 97,87 %
27.02.2020 17:50 0,6 C -0,6 C -1,1 C 97 % 998,1 hPa 0,2 l/m 0 min 2 min 0 W/m 0,0 km/h (0 Bft) 97,87 %
27.02.2020 17:52 0,6 C -0,6 C -1,1 C 97 % 998,2 hPa 0,0 l/m 0 min 2 min 0 W/m 3,2 km/h (1 Bft) 97,87 %
27.02.2020 17:54 0,6 C -0,6 C -1,1 C 97 % 998,2 hPa 0,0 l/m 0 min 2 min 0 W/m 0,0 km/h (0 Bft) 95,74 %
27.02.2020 17:56 0,6 C -0,6 C -1,1 C 97 % 998,3 hPa 0,0 l/m 0 min 2 min 0 W/m 3,2 km/h (1 Bft) 97,56 %
27.02.2020 17:58 0,6 C -0,6 C -1,1 C 97 % 998,4 hPa 0,0 l/m 0 min 2 min 0 W/m 9,7 km/h (2 Bft) 97,96 %
27.02.2020 18:00 0,6 C -0,6 C -1,1 C 97 % 998,5 hPa 0,0 l/m 0 min 2 min 0 W/m 0,0 km/h (0 Bft) 95,83 %
27.02.2020 18:02 0,6 C -0,6 C -1,1 C 97 % 998,5 hPa 0,0 l/m 0 min 2 min 0 W/m 3,2 km/h (1 Bft) 95,92 %
27.02.2020 18:04 0,6 C -0,6 C -1,1 C 97 % 998,7 hPa 0,0 l/m 0 min 2 min 0 W/m 0,0 km/h (0 Bft) 95,45 %
27.02.2020 18:06 0,6 C -0,6 C -1,1 C 97 % 998,7 hPa 0,0 l/m 0 min 2 min 0 W/m 9,7 km/h (2 Bft) 97,92 %
27.02.2020 18:08 0,6 C -0,6 C -1,1 C 97 % 998,9 hPa 0,0 l/m 0 min 2 min 0 W/m 12,9 km/h (3 Bft) 97,92 %
27.02.2020 18:10 0,6 C -0,6 C -1,1 C 97 % 999,0 hPa 0,2 l/m 0 min 2 min 0 W/m 3,2 km/h (1 Bft) 97,87 %
27.02.2020 18:12 0,5 C -0,6 C -1,1 C 97 % 999,1 hPa 0,0 l/m 0 min 2 min 0 W/m 9,7 km/h (2 Bft) 93,62 %
27.02.2020 18:14 0,5 C -0,6 C -1,1 C 97 % 999,2 hPa 0,0 l/m 0 min 2 min 0 W/m 9,7 km/h (2 Bft) 95,74 %
27.02.2020 18:16 0,5 C -0,6 C -1,1 C 97 % 999,3 hPa 0,0 l/m 0 min 2 min 0 W/m 3,2 km/h (1 Bft) 89,36 %
27.02.2020 18:18 0,5 C -0,6 C -1,1 C 97 % 999,4 hPa 0,0 l/m 0 min 2 min 0 W/m 6,4 km/h (2 Bft) 95,65 %
27.02.2020 18:20 0,5 C -0,6 C -1,1 C 97 % 999,4 hPa 0,0 l/m 0 min 2 min 0 W/m 0,0 km/h (0 Bft) 95,74 %
27.02.2020 18:22 0,5 C -0,6 C -1,1 C 97 % 999,6 hPa 0,0 l/m 0 min 2 min 0 W/m 0,0 km/h (0 Bft) 92,68 %
27.02.2020 18:24 0,5 C -0,6 C -1,1 C 97 % 999,6 hPa 0,0 l/m 0 min 2 min 0 W/m 0,0 km/h (0 Bft) 95,83 %
27.02.2020 18:26 0,5 C -0,6 C -1,1 C 97 % 999,7 hPa 0,0 l/m 0 min 2 min 0 W/m 0,0 km/h (0 Bft) 95,83 %
27.02.2020 18:28 0,4 C -0,6 C -1,1 C 97 % 999,8 hPa 0,0 l/m 0 min 2 min 0 W/m 0,0 km/h (0 Bft) 93,75 %
27.02.2020 18:30 0,4 C -0,6 C -1,1 C 97 % 999,9 hPa 0,0 l/m 0 min 2 min 0 W/m 0,0 km/h (0 Bft) 52,38 %
27.02.2020 18:32 0,4 C -0,6 C -1,1 C 97 % 999,9 hPa 0,0 l/m 0 min 2 min 0 W/m 0,0 km/h (0 Bft) 95,83 %
27.02.2020 18:34 0,4 C -0,6 C -1,1 C 97 % 1000,0 hPa 0,0 l/m 0 min 2 min 0 W/m 0,0 km/h (0 Bft) 97,87 %
27.02.2020 18:36 0,4 C -0,6 C -1,1 C 97 % 1000,1 hPa 0,0 l/m 0 min 2 min 0 W/m 0,0 km/h (0 Bft) 95,74 %
27.02.2020 18:38 0,4 C -0,6 C -1,1 C 97 % 1000,1 hPa 0,0 l/m 0 min 2 min 0 W/m 0,0 km/h (0 Bft) 95,74 %
27.02.2020 18:40 0,4 C -0,6 C -1,1 C 97 % 1000,2 hPa 0,0 l/m 0 min 2 min 0 W/m 3,2 km/h (1 Bft) 95,74 %
27.02.2020 18:42 0,4 C -0,6 C -1,1 C 97 % 1000,3 hPa 0,0 l/m 0 min 2 min 0 W/m 0,0 km/h (0 Bft) 97,83 %
27.02.2020 18:44 0,4 C -0,6 C -1,1 C 97 % 1000,4 hPa 0,0 l/m 0 min 2 min 0 W/m 0,0 km/h (0 Bft) 97,87 %
27.02.2020 18:46 0,4 C -0,6 C -1,1 C 97 % 1000,5 hPa 0,0 l/m 0 min 2 min 0 W/m 0,0 km/h (0 Bft) 97,56 %
27.02.2020 18:48 0,4 C -0,6 C -1,1 C 97 % 1000,5 hPa 0,2 l/m 0 min 2 min 0 W/m 0,0 km/h (0 Bft) 93,62 %
27.02.2020 18:50 0,4 C -0,6 C -1,1 C 97 % 1000,6 hPa 0,0 l/m 0 min 2 min 0 W/m 0,0 km/h (0 Bft) 93,75 %
27.02.2020 18:52 0,4 C -0,6 C -1,1 C 97 % 1000,6 hPa 0,0 l/m 0 min 2 min 0 W/m 0,0 km/h (0 Bft) 97,87 %
27.02.2020 18:54 0,4 C -0,6 C -1,1 C 97 % 1000,7 hPa 0,0 l/m 0 min 2 min 0 W/m 0,0 km/h (0 Bft) 95,83 %
27.02.2020 18:56 0,4 C -0,6 C -1,1 C 97 % 1000,8 hPa 0,0 l/m 0 min 2 min 0 W/m 0,0 km/h (0 Bft) 97,87 %
27.02.2020 18:58 0,4 C -0,6 C -1,1 C 97 % 1000,9 hPa 0,0 l/m 0 min 2 min 0 W/m 0,0 km/h (0 Bft) 100,00 %
27.02.2020 19:00 0,3 C -0,6 C -1,1 C 97 % 1001,0 hPa 0,0 l/m 0 min 2 min 0 W/m 0,0 km/h (0 Bft) 100,00 %
27.02.2020 19:02 0,3 C -0,6 C -1,1 C 97 % 1001,1 hPa 0,0 l/m 0 min 2 min 0 W/m 0,0 km/h (0 Bft) 97,87 %
27.02.2020 19:04 0,3 C -0,6 C -1,1 C 97 % 1001,2 hPa 0,0 l/m 0 min 2 min 0 W/m 0,0 km/h (0 Bft) 97,83 %
27.02.2020 19:06 0,3 C -0,6 C -1,1 C 97 % 1001,3 hPa 0,0 l/m 0 min 2 min 0 W/m 0,0 km/h (0 Bft) 97,87 %
27.02.2020 19:08 0,3 C -0,6 C -1,1 C 97 % 1001,4 hPa 0,0 l/m 0 min 2 min 0 W/m 0,0 km/h (0 Bft) 97,87 %
27.02.2020 19:10 0,3 C -0,6 C -1,1 C 97 % 1001,4 hPa 0,0 l/m 0 min 2 min 0 W/m 0,0 km/h (0 Bft) 97,87 %
27.02.2020 19:12 0,3 C -0,6 C -1,1 C 97 % 1001,5 hPa 0,0 l/m 0 min 2 min 0 W/m 0,0 km/h (0 Bft) 92,68 %
27.02.2020 19:14 0,3 C -0,6 C -1,1 C 97 % 1001,5 hPa 0,0 l/m 0 min 2 min 0 W/m 0,0 km/h (0 Bft) 97,92 %
27.02.2020 19:16 0,3 C -0,6 C -1,1 C 97 % 1001,6 hPa 0,0 l/m 0 min 2 min 0 W/m 3,2 km/h (1 Bft) 95,83 %
27.02.2020 19:18 0,3 C -0,6 C -1,1 C 97 % 1001,7 hPa 0,0 l/m 0 min 2 min 0 W/m 6,4 km/h (2 Bft) 97,92 %
27.02.2020 19:20 0,3 C -0,6 C -1,1 C 97 % 1001,8 hPa 0,0 l/m 0 min 2 min 0 W/m 0,0 km/h (0 Bft) 95,74 %
27.02.2020 19:22 0,3 C -0,6 C -1,1 C 97 % 1001,8 hPa 0,0 l/m 0 min 2 min 0 W/m 0,0 km/h (0 Bft) 97,92 %
27.02.2020 19:24 0,3 C -0,6 C -1,1 C 97 % 1001,9 hPa 0,0 l/m 0 min 2 min 0 W/m 3,2 km/h (1 Bft) 97,92 %
27.02.2020 19:26 0,3 C -0,6 C -1,1 C 97 % 1001,9 hPa 0,2 l/m 0 min 2 min 0 W/m 3,2 km/h (1 Bft) 97,87 %
27.02.2020 19:28 0,3 C -0,6 C -1,1 C 97 % 1002,1 hPa 0,0 l/m 0 min 2 min 0 W/m 3,2 km/h (1 Bft) 97,83 %
27.02.2020 19:30 0,3 C -0,6 C -1,1 C 97 % 1002,2 hPa 0,0 l/m 0 min 2 min 0 W/m 3,2 km/h (1 Bft) 97,87 %
27.02.2020 19:32 0,3 C -0,6 C -1,1 C 97 % 1002,2 hPa 0,0 l/m 0 min 2 min 0 W/m 3,2 km/h (1 Bft) 97,87 %
27.02.2020 19:34 0,3 C -0,6 C -1,1 C 97 % 1002,3 hPa 0,0 l/m 0 min 0 min 0 W/m 0,0 km/h (0 Bft) 95,74 %
27.02.2020 19:36 0,3 C -0,6 C -1,1 C 98 % 1002,4 hPa 0,0 l/m 0 min 2 min 0 W/m 3,2 km/h (1 Bft) 97,62 %
27.02.2020 19:38 0,3 C -0,6 C -1,1 C 98 % 1002,4 hPa 0,0 l/m 0 min 2 min 0 W/m 0,0 km/h (0 Bft) 95,83 %
27.02.2020 19:40 0,3 C -0,6 C -1,1 C 98 % 1002,5 hPa 0,0 l/m 0 min 0 min 0 W/m 0,0 km/h (0 Bft) 95,83 %
27.02.2020 19:42 0,3 C -0,6 C -1,1 C 98 % 1002,6 hPa 0,0 l/m 0 min 0 min 0 W/m 3,2 km/h (1 Bft) 97,87 %
27.02.2020 19:44 0,3 C -0,6 C -1,1 C 98 % 1002,7 hPa 0,0 l/m 0 min 2 min 0 W/m 3,2 km/h (1 Bft) 95,83 %
27.02.2020 19:46 0,3 C -0,6 C -1,1 C 98 % 1002,7 hPa 0,0 l/m 0 min 2 min 0 W/m 6,4 km/h (2 Bft) 97,92 %
27.02.2020 19:48 0,3 C -0,6 C -1,1 C 98 % 1002,8 hPa 0,0 l/m 0 min 2 min 0 W/m 0,0 km/h (0 Bft) 97,87 %
27.02.2020 19:49 0,3 C -0,6 C -1,1 C 98 % 1002,9 hPa 0,0 l/m 0 min 1 min 0 W/m 0,0 km/h (0 Bft) 97,83 %
27.02.2020 19:52 0,3 C -0,6 C -1,1 C 98 % 1003,0 hPa 0,0 l/m 0 min 3 min 0 W/m 9,7 km/h (2 Bft) 95,74 %
27.02.2020 19:54 0,3 C -0,6 C -1,1 C 98 % 1003,0 hPa 0,0 l/m 0 min 2 min 0 W/m 6,4 km/h (2 Bft) 95,74 %
27.02.2020 19:56 0,3 C -0,6 C -1,1 C 98 % 1003,1 hPa 0,0 l/m 0 min 2 min 0 W/m 6,4 km/h (2 Bft) 97,87 %
27.02.2020 19:58 0,3 C -0,6 C -1,1 C 98 % 1003,1 hPa 0,0 l/m 0 min 2 min 0 W/m 3,2 km/h (1 Bft) 97,87 %
27.02.2020 20:00 0,3 C -0,6 C -1,1 C 98 % 1003,2 hPa 0,0 l/m 0 min 2 min 0 W/m 0,0 km/h (0 Bft) 97,87 %
27.02.2020 20:02 0,3 C -0,6 C -1,1 C 98 % 1003,2 hPa 0,0 l/m 0 min 2 min 0 W/m 3,2 km/h (1 Bft) 93,48 %
27.02.2020 20:04 0,3 C -0,6 C -1,1 C 98 % 1003,2 hPa 0,0 l/m 0 min 2 min 0 W/m 3,2 km/h (1 Bft) 97,87 %
27.02.2020 20:06 0,3 C -0,6 C -1,1 C 98 % 1003,3 hPa 0,0 l/m 0 min 2 min 0 W/m 3,2 km/h (1 Bft) 100,00 %
27.02.2020 20:08 0,3 C -0,6 C -1,1 C 98 % 1003,3 hPa 0,0 l/m 0 min 2 min 0 W/m 3,2 km/h (1 Bft) 100,00 %
27.02.2020 20:10 0,3 C -0,6 C -1,1 C 98 % 1003,4 hPa 0,0 l/m 0 min 2 min 0 W/m 0,0 km/h (0 Bft) 97,87 %
27.02.2020 20:12 0,3 C -0,6 C -1,1 C 98 % 1003,4 hPa 0,0 l/m 0 min 2 min 0 W/m 6,4 km/h (2 Bft) 100,00 %
27.02.2020 20:14 0,3 C -0,6 C -1,1 C 98 % 1003,5 hPa 0,2 l/m 0 min 2 min 0 W/m 9,7 km/h (2 Bft) 100,00 %
27.02.2020 20:16 0,3 C -0,6 C -1,1 C 98 % 1003,5 hPa 0,0 l/m 0 min 2 min 0 W/m 3,2 km/h (1 Bft) 100,00 %
27.02.2020 20:18 0,3 C -0,6 C -1,1 C 98 % 1003,5 hPa 0,0 l/m 0 min 0 min 0 W/m 3,2 km/h (1 Bft) 100,00 %
27.02.2020 20:20 0,3 C -0,6 C -1,1 C 98 % 1003,6 hPa 0,0 l/m 0 min 0 min 0 W/m 6,4 km/h (2 Bft) 97,87 %
27.02.2020 20:22 0,3 C -0,6 C -1,1 C 98 % 1003,6 hPa 0,0 l/m 0 min 0 min 0 W/m 0,0 km/h (0 Bft) 100,00 %
27.02.2020 20:24 0,3 C -0,6 C -1,1 C 98 % 1003,7 hPa 0,0 l/m 0 min 0 min 0 W/m 3,2 km/h (1 Bft) 100,00 %
27.02.2020 20:26 0,3 C -0,6 C -1,1 C 98 % 1003,8 hPa 0,0 l/m 0 min 0 min 0 W/m 0,0 km/h (0 Bft) 100,00 %
27.02.2020 20:28 0,3 C -0,6 C -1,1 C 98 % 1003,9 hPa 0,0 l/m 0 min 0 min 0 W/m 3,2 km/h (1 Bft) 100,00 %
27.02.2020 20:30 0,3 C -0,6 C -1,1 C 98 % 1004,0 hPa 0,0 l/m 0 min 2 min 0 W/m 0,0 km/h (0 Bft) 93,62 %
27.02.2020 20:32 0,3 C -0,6 C -1,1 C 98 % 1004,1 hPa 0,0 l/m 0 min 2 min 0 W/m 6,4 km/h (2 Bft) 97,87 %
27.02.2020 20:34 0,4 C -0,6 C -1,1 C 98 % 1004,1 hPa 0,0 l/m 0 min 2 min 0 W/m 3,2 km/h (1 Bft) 97,87 %
27.02.2020 20:36 0,4 C -0,6 C -1,1 C 98 % 1004,3 hPa 0,0 l/m 0 min 2 min 0 W/m 3,2 km/h (1 Bft) 93,62 %
27.02.2020 20:38 0,4 C -0,6 C -1,1 C 98 % 1004,4 hPa 0,0 l/m 0 min 2 min 0 W/m 6,4 km/h (2 Bft) 95,65 %
27.02.2020 20:40 0,4 C -0,6 C -1,1 C 98 % 1004,4 hPa 0,0 l/m 0 min 2 min 0 W/m 6,4 km/h (2 Bft) 95,74 %
27.02.2020 20:42 0,4 C 0,0 C -0,6 C 98 % 1004,5 hPa 0,0 l/m 0 min 2 min 0 W/m 6,4 km/h (2 Bft) 91,49 %
27.02.2020 20:44 0,5 C 0,0 C -0,6 C 98 % 1004,6 hPa 0,0 l/m 0 min 2 min 0 W/m 0,0 km/h (0 Bft) 97,87 %
27.02.2020 20:46 0,5 C 0,0 C -0,6 C 98 % 1004,7 hPa 0,0 l/m 0 min 2 min 0 W/m 0,0 km/h (0 Bft) 97,87 %
27.02.2020 20:48 0,5 C 0,0 C -0,6 C 98 % 1004,7 hPa 0,0 l/m 0 min 2 min 0 W/m 0,0 km/h (0 Bft) 93,48 %
27.02.2020 20:50 0,6 C 0,0 C -0,6 C 98 % 1004,8 hPa 0,0 l/m 0 min 2 min 0 W/m 6,4 km/h (2 Bft) 95,74 %
27.02.2020 20:52 0,6 C 0,0 C -0,6 C 98 % 1004,9 hPa 0,0 l/m 0 min 2 min 0 W/m 16,1 km/h (3 Bft) 89,36 %
27.02.2020 20:54 0,6 C 0,0 C -0,6 C 98 % 1005,0 hPa 0,0 l/m 0 min 2 min 0 W/m 3,2 km/h (1 Bft) 95,74 %
27.02.2020 20:56 0,6 C 0,0 C -0,6 C 98 % 1005,0 hPa 0,0 l/m 0 min 0 min 0 W/m 6,4 km/h (2 Bft) 95,74 %
27.02.2020 20:58 0,6 C 0,0 C -0,6 C 98 % 1005,1 hPa 0,0 l/m 0 min 0 min 0 W/m 9,7 km/h (2 Bft) 95,74 %
27.02.2020 21:00 0,6 C 0,0 C -0,6 C 98 % 1005,2 hPa 0,0 l/m 0 min 0 min 0 W/m 3,2 km/h (1 Bft) 95,65 %
27.02.2020 21:02 0,6 C 0,0 C -0,6 C 98 % 1005,3 hPa 0,0 l/m 0 min 2 min 0 W/m 6,4 km/h (2 Bft) 93,62 %
27.02.2020 21:04 0,6 C 0,0 C -0,6 C 98 % 1005,4 hPa 0,2 l/m 0 min 2 min 0 W/m 12,9 km/h (3 Bft) 95,74 %
27.02.2020 21:06 0,6 C 0,0 C -0,6 C 98 % 1005,4 hPa 0,0 l/m 0 min 2 min 0 W/m 3,2 km/h (1 Bft) 95,74 %
27.02.2020 21:08 0,6 C 0,0 C -0,6 C 98 % 1005,5 hPa 0,0 l/m 0 min 2 min 0 W/m 12,9 km/h (3 Bft) 95,74 %
27.02.2020 21:10 0,6 C 0,0 C -0,6 C 98 % 1005,6 hPa 0,0 l/m 0 min 2 min 0 W/m 16,1 km/h (3 Bft) 93,62 %
27.02.2020 21:12 0,6 C 0,0 C -0,6 C 98 % 1005,6 hPa 0,0 l/m 0 min 2 min 0 W/m 6,4 km/h (2 Bft) 95,65 %
27.02.2020 21:14 0,7 C 0,0 C 0,0 C 98 % 1005,7 hPa 0,0 l/m 0 min 2 min 0 W/m 6,4 km/h (2 Bft) 93,62 %
27.02.2020 21:16 0,7 C 0,0 C 0,0 C 98 % 1005,7 hPa 0,0 l/m 0 min 2 min 0 W/m 6,4 km/h (2 Bft) 97,87 %
27.02.2020 21:18 0,8 C 0,0 C -0,6 C 98 % 1005,8 hPa 0,0 l/m 0 min 2 min 0 W/m 3,2 km/h (1 Bft) 97,87 %
27.02.2020 21:20 0,8 C 0,0 C 0,0 C 98 % 1005,9 hPa 0,0 l/m 0 min 2 min 0 W/m 6,4 km/h (2 Bft) 97,87 %
27.02.2020 21:22 0,8 C 0,0 C 0,0 C 99 % 1006,0 hPa 0,0 l/m 0 min 2 min 0 W/m 6,4 km/h (2 Bft) 93,62 %
27.02.2020 21:24 0,9 C 0,6 C 0,0 C 99 % 1006,1 hPa 0,0 l/m 0 min 2 min 0 W/m 6,4 km/h (2 Bft) 97,83 %
27.02.2020 21:26 0,9 C 0,6 C 0,0 C 99 % 1006,1 hPa 0,2 l/m 0 min 2 min 0 W/m 6,4 km/h (2 Bft) 97,87 %
27.02.2020 21:28 0,9 C 0,0 C 0,0 C 99 % 1006,0 hPa 0,0 l/m 0 min 2 min 0 W/m 0,0 km/h (0 Bft) 97,87 %
27.02.2020 21:30 0,9 C 0,0 C 0,0 C 99 % 1006,1 hPa 0,0 l/m 0 min 2 min 0 W/m 3,2 km/h (1 Bft) 95,74 %
27.02.2020 21:32 0,9 C 0,6 C 0,0 C 99 % 1006,2 hPa 0,0 l/m 0 min 2 min 0 W/m 3,2 km/h (1 Bft) 97,87 %
27.02.2020 21:34 0,9 C 0,6 C 0,0 C 99 % 1006,3 hPa 0,0 l/m 0 min 2 min 0 W/m 12,9 km/h (3 Bft) 97,87 %
27.02.2020 21:36 1,0 C 0,6 C 0,0 C 99 % 1006,4 hPa 0,0 l/m 0 min 2 min 0 W/m 3,2 km/h (1 Bft) 97,83 %
27.02.2020 21:38 1,0 C 0,6 C 0,0 C 99 % 1006,4 hPa 0,0 l/m 0 min 0 min 0 W/m 3,2 km/h (1 Bft) 53,49 %
27.02.2020 21:40 1,1 C 0,6 C 0,0 C 98 % 1006,4 hPa 0,0 l/m 0 min 0 min 0 W/m 0,0 km/h (0 Bft) 100,00 %
27.02.2020 21:42 1,1 C 0,6 C 0,0 C 98 % 1006,5 hPa 0,0 l/m 0 min 0 min 0 W/m 12,9 km/h (3 Bft) 100,00 %
27.02.2020 21:44 1,1 C 0,6 C 0,0 C 98 % 1006,6 hPa 0,0 l/m 0 min 2 min 0 W/m 6,4 km/h (2 Bft) 100,00 %
27.02.2020 21:46 1,1 C 0,6 C 0,0 C 99 % 1006,7 hPa 0,0 l/m 0 min 2 min 0 W/m 9,7 km/h (2 Bft) 100,00 %
27.02.2020 21:48 1,1 C 0,6 C 0,0 C 98 % 1006,8 hPa 0,2 l/m 0 min 2 min 0 W/m 6,4 km/h (2 Bft) 97,87 %
27.02.2020 21:50 1,2 C 0,6 C 0,0 C 99 % 1006,8 hPa 0,0 l/m 0 min 2 min 0 W/m 6,4 km/h (2 Bft) 100,00 %
27.02.2020 21:52 1,2 C 0,6 C 0,0 C 99 % 1007,0 hPa 0,0 l/m 0 min 0 min 0 W/m 3,2 km/h (1 Bft) 100,00 %
27.02.2020 21:54 1,2 C 0,6 C 0,0 C 99 % 1007,1 hPa 0,0 l/m 0 min 2 min 0 W/m 6,4 km/h (2 Bft) 100,00 %
27.02.2020 21:56 1,3 C 0,6 C 0,0 C 99 % 1007,1 hPa 0,0 l/m 0 min 0 min 0 W/m 3,2 km/h (1 Bft) 100,00 %
27.02.2020 21:58 1,3 C 0,6 C 0,0 C 99 % 1007,0 hPa 0,0 l/m 0 min 0 min 0 W/m 9,7 km/h (2 Bft) 100,00 %
27.02.2020 22:00 1,3 C 0,6 C 0,0 C 99 % 1007,1 hPa 0,2 l/m 0 min 0 min 0 W/m 0,0 km/h (0 Bft) 100,00 %
27.02.2020 22:02 1,3 C 0,6 C 0,0 C 99 % 1007,2 hPa 0,0 l/m 0 min 2 min 0 W/m 16,1 km/h (3 Bft) 100,00 %
27.02.2020 22:04 1,3 C 0,6 C 0,6 C 99 % 1007,3 hPa 0,0 l/m 0 min 2 min 0 W/m 0,0 km/h (0 Bft) 100,00 %
27.02.2020 22:06 1,3 C 0,6 C 0,6 C 99 % 1007,3 hPa 0,0 l/m 0 min 0 min 0 W/m 3,2 km/h (1 Bft) 100,00 %
27.02.2020 22:08 1,4 C 0,6 C 0,6 C 99 % 1007,4 hPa 0,0 l/m 0 min 2 min 0 W/m 16,1 km/h (3 Bft) 100,00 %
27.02.2020 22:10 1,4 C 1,1 C 0,6 C 99 % 1007,5 hPa 0,0 l/m 0 min 0 min 0 W/m 19,3 km/h (3 Bft) 100,00 %
27.02.2020 22:12 1,4 C 1,1 C 0,6 C 99 % 1007,6 hPa 0,0 l/m 0 min 0 min 0 W/m 0,0 km/h (0 Bft) 100,00 %
27.02.2020 22:14 1,4 C 1,1 C 0,6 C 99 % 1007,6 hPa 0,0 l/m 0 min 0 min 0 W/m 0,0 km/h (0 Bft) 100,00 %
27.02.2020 22:16 1,4 C 1,1 C 0,6 C 99 % 1007,7 hPa 0,2 l/m 0 min 0 min 0 W/m 0,0 km/h (0 Bft) 97,87 %
27.02.2020 22:18 1,5 C 1,1 C 0,6 C 99 % 1007,7 hPa 0,0 l/m 0 min 0 min 0 W/m 0,0 km/h (0 Bft) 100,00 %
27.02.2020 22:20 1,5 C 1,1 C 0,6 C 99 % 1007,8 hPa 0,0 l/m 0 min 0 min 0 W/m 0,0 km/h (0 Bft) 100,00 %
27.02.2020 22:22 1,5 C 1,1 C 0,6 C 99 % 1007,9 hPa 0,0 l/m 0 min 0 min 0 W/m 3,2 km/h (1 Bft) 100,00 %
27.02.2020 22:24 1,5 C 1,1 C 0,6 C 99 % 1007,9 hPa 0,0 l/m 0 min 0 min 0 W/m 0,0 km/h (0 Bft) 100,00 %
27.02.2020 22:26 1,6 C 1,1 C 0,6 C 99 % 1008,0 hPa 0,2 l/m 0 min 2 min 0 W/m 0,0 km/h (0 Bft) 97,87 %
27.02.2020 22:28 1,6 C 1,1 C 0,6 C 99 % 1008,1 hPa 0,0 l/m 0 min 2 min 0 W/m 0,0 km/h (0 Bft) 100,00 %
27.02.2020 22:30 1,6 C 1,1 C 0,6 C 99 % 1008,2 hPa 0,0 l/m 0 min 0 min 0 W/m 0,0 km/h (0 Bft) 100,00 %
27.02.2020 22:32 1,6 C 1,1 C 0,6 C 99 % 1008,2 hPa 0,0 l/m 0 min 2 min 0 W/m 12,9 km/h (3 Bft) 100,00 %
27.02.2020 22:34 1,6 C 1,1 C 0,6 C 99 % 1008,3 hPa 0,0 l/m 0 min 0 min 0 W/m 0,0 km/h (0 Bft) 100,00 %
27.02.2020 22:36 1,6 C 1,1 C 0,6 C 99 % 1008,3 hPa 0,0 l/m 0 min 0 min 0 W/m 3,2 km/h (1 Bft) 100,00 %
27.02.2020 22:38 1,6 C 1,1 C 0,6 C 99 % 1008,3 hPa 0,0 l/m 0 min 0 min 0 W/m 12,9 km/h (3 Bft) 100,00 %
27.02.2020 22:40 1,6 C 0,6 C 0,6 C 99 % 1008,4 hPa 0,0 l/m 0 min 0 min 0 W/m 0,0 km/h (0 Bft) 97,87 %
27.02.2020 22:42 1,6 C 0,6 C 0,0 C 99 % 1008,4 hPa 0,0 l/m 0 min 2 min 0 W/m 6,4 km/h (2 Bft) 97,87 %
27.02.2020 22:44 1,6 C 0,6 C 0,0 C 99 % 1008,5 hPa 0,0 l/m 0 min 0 min 0 W/m 0,0 km/h (0 Bft) 100,00 %
27.02.2020 22:46 1,6 C 0,6 C 0,0 C 99 % 1008,5 hPa 0,0 l/m 0 min 2 min 0 W/m 3,2 km/h (1 Bft) 97,83 %
27.02.2020 22:48 1,6 C 0,6 C 0,0 C 99 % 1008,6 hPa 0,0 l/m 0 min 0 min 0 W/m 0,0 km/h (0 Bft) 97,87 %
27.02.2020 22:50 1,6 C 0,6 C 0,0 C 99 % 1008,6 hPa 0,0 l/m 0 min 0 min 0 W/m 0,0 km/h (0 Bft) 97,87 %
27.02.2020 22:52 1,6 C 0,6 C 0,0 C 99 % 1008,6 hPa 0,2 l/m 0 min 2 min 0 W/m 3,2 km/h (1 Bft) 97,87 %
27.02.2020 22:54 1,5 C 0,6 C 0,0 C 99 % 1008,7 hPa 0,0 l/m 0 min 0 min 0 W/m 3,2 km/h (1 Bft) 97,87 %
27.02.2020 22:56 1,5 C 0,6 C 0,0 C 99 % 1008,7 hPa 0,0 l/m 0 min 0 min 0 W/m 0,0 km/h (0 Bft) 97,83 %
27.02.2020 22:58 1,5 C 0,6 C 0,0 C 99 % 1008,8 hPa 0,0 l/m 0 min 0 min 0 W/m 6,4 km/h (2 Bft) 97,87 %
27.02.2020 23:00 1,5 C 0,6 C 0,0 C 99 % 1008,8 hPa 0,0 l/m 0 min 0 min 0 W/m 9,7 km/h (2 Bft) 97,87 %
27.02.2020 23:02 1,4 C 0,6 C 0,0 C 99 % 1008,9 hPa 0,0 l/m 0 min 0 min 0 W/m 0,0 km/h (0 Bft) 97,87 %
27.02.2020 23:04 1,4 C 0,6 C 0,0 C 99 % 1009,0 hPa 0,0 l/m 0 min 0 min 0 W/m 0,0 km/h (0 Bft) 97,87 %
27.02.2020 23:06 1,4 C 0,6 C 0,0 C 99 % 1009,1 hPa 0,0 l/m 0 min 0 min 0 W/m 0,0 km/h (0 Bft) 95,74 %
27.02.2020 23:08 1,4 C 0,6 C 0,0 C 99 % 1009,2 hPa 0,0 l/m 0 min 0 min 0 W/m 0,0 km/h (0 Bft) 95,65 %
27.02.2020 23:10 1,4 C 0,6 C 0,0 C 99 % 1009,2 hPa 0,0 l/m 0 min 0 min 0 W/m 0,0 km/h (0 Bft) 97,87 %
27.02.2020 23:12 1,4 C 0,6 C 0,0 C 99 % 1009,2 hPa 0,0 l/m 0 min 0 min 0 W/m 0,0 km/h (0 Bft) 93,62 %
27.02.2020 23:14 1,4 C 0,6 C 0,0 C 99 % 1009,2 hPa 0,0 l/m 0 min 0 min 0 W/m 0,0 km/h (0 Bft) 95,74 %
27.02.2020 23:16 1,4 C 0,6 C 0,0 C 99 % 1009,3 hPa 0,0 l/m 0 min 0 min 0 W/m 0,0 km/h (0 Bft) 93,62 %
27.02.2020 23:18 1,4 C 0,6 C 0,0 C 99 % 1009,3 hPa 0,0 l/m 0 min 0 min 0 W/m 3,2 km/h (1 Bft) 93,62 %
27.02.2020 23:20 1,4 C 0,6 C 0,0 C 99 % 1009,4 hPa 0,0 l/m 0 min 0 min 0 W/m 0,0 km/h (0 Bft) 95,65 %
27.02.2020 23:22 1,3 C 0,6 C 0,0 C 99 % 1009,4 hPa 0,0 l/m 0 min 0 min 0 W/m 0,0 km/h (0 Bft) 95,74 %
27.02.2020 23:24 1,3 C 0,6 C 0,0 C 99 % 1009,5 hPa 0,0 l/m 0 min 0 min 0 W/m 3,2 km/h (1 Bft) 93,62 %
27.02.2020 23:26 1,3 C 0,6 C 0,0 C 99 % 1009,6 hPa 0,0 l/m 0 min 0 min 0 W/m 0,0 km/h (0 Bft) 93,62 %
27.02.2020 23:28 1,3 C 0,6 C 0,0 C 99 % 1009,7 hPa 0,0 l/m 0 min 0 min 0 W/m 3,2 km/h (1 Bft) 91,49 %
27.02.2020 23:30 1,3 C 0,6 C 0,0 C 99 % 1009,9 hPa 0,0 l/m 0 min 0 min 0 W/m 0,0 km/h (0 Bft) 91,49 %
27.02.2020 23:32 1,3 C 0,6 C 0,0 C 99 % 1009,8 hPa 0,0 l/m 0 min 0 min 0 W/m 0,0 km/h (0 Bft) 93,48 %
27.02.2020 23:34 1,3 C 0,6 C 0,0 C 99 % 1009,9 hPa 0,0 l/m 0 min 0 min 0 W/m 9,7 km/h (2 Bft) 91,49 %
27.02.2020 23:36 1,3 C 0,6 C 0,0 C 99 % 1010,0 hPa 0,0 l/m 0 min 0 min 0 W/m 3,2 km/h (1 Bft) 91,49 %
27.02.2020 23:38 1,3 C 0,6 C 0,0 C 99 % 1010,0 hPa 0,0 l/m 0 min 0 min 0 W/m 0,0 km/h (0 Bft) 93,62 %
27.02.2020 23:40 1,3 C 0,6 C 0,0 C 99 % 1010,1 hPa 0,0 l/m 0 min 0 min 0 W/m 9,7 km/h (2 Bft) 93,62 %
27.02.2020 23:42 1,3 C 0,6 C 0,0 C 99 % 1010,1 hPa 0,0 l/m 0 min 0 min 0 W/m 3,2 km/h (1 Bft) 93,62 %
27.02.2020 23:44 1,3 C 0,6 C 0,0 C 99 % 1010,1 hPa 0,0 l/m 0 min 0 min 0 W/m 6,4 km/h (2 Bft) 91,30 %
27.02.2020 23:46 1,3 C 0,6 C 0,0 C 99 % 1010,2 hPa 0,0 l/m 0 min 0 min 0 W/m 3,2 km/h (1 Bft) 91,49 %
27.02.2020 23:48 1,3 C 0,6 C 0,0 C 99 % 1010,2 hPa 0,0 l/m 0 min 0 min 0 W/m 0,0 km/h (0 Bft) 95,74 %
27.02.2020 23:50 1,2 C 0,6 C 0,0 C 99 % 1010,2 hPa 0,0 l/m 0 min 0 min 0 W/m 3,2 km/h (1 Bft) 95,74 %
27.02.2020 23:52 1,2 C 0,6 C 0,0 C 99 % 1010,3 hPa 0,0 l/m 0 min 0 min 0 W/m 3,2 km/h (1 Bft) 95,74 %
27.02.2020 23:54 1,2 C 0,6 C 0,0 C 99 % 1010,3 hPa 0,0 l/m 0 min 0 min 0 W/m 0,0 km/h (0 Bft) 93,48 %
27.02.2020 23:56 1,2 C 0,6 C 0,0 C 99 % 1010,3 hPa 0,0 l/m 0 min 0 min 0 W/m 0,0 km/h (0 Bft) 97,87 %
27.02.2020 23:58 1,2 C 0,6 C 0,0 C 99 % 1010,4 hPa 0,0 l/m 0 min 0 min 0 W/m 0,0 km/h (0 Bft) 97,87 %
_ Min-Zeit 19:00 16:22 16:38 11:58 14:24 - - - - 00:00 18:30
Minimum _ 0,3 C -0,6 C -1,1 C 87 % 994,4 hPa - - - - 0,0 km/h (0 Bft) 52,38 %
_ Max-Zeit 11:46 10:44 10:44 21:22 23:58 02:06 00:00 12:08 10:52 11:50 00:02
Maximum _ 4,6 C 4,4 C 3,9 C 99 % 1010,4 hPa 0,2 l/m 0 min 4 min 152 W/m 38,6 km/h
O-SO (5 Bft)
100,00 %
Durchschnitt _ 2,1 C 1,2 C 0,8 C 96 % 1002,4 hPa #7,8 l/m #0 min. #9:56 h 65 W/m 7,2 km/h (2 Bft) 97,17 %
© 2020 W. Hausmann